Wetterdaten: Mittwoch, 11.02.2015
Datum Zeit Temp. Aussen +5cm Feuchte Auss Luftdruck Regen Sonnenschein Regendauer Solar Windben
11.02.2015 00:00 4,9 C 3,3 C 96 % 1029,3 hPa 0,0 l/m 0 min 0 min 0 W/m 4,2 km/h (1 Bft)
11.02.2015 00:02 4,9 C 3,3 C 96 % 1029,3 hPa 0,0 l/m 0 min 0 min 0 W/m 6,3 km/h (2 Bft)
11.02.2015 00:05 5,0 C 3,3 C 96 % 1029,3 hPa 0,0 l/m 0 min 0 min 0 W/m 6,3 km/h (2 Bft)
11.02.2015 00:06 5,0 C 3,3 C 96 % 1029,3 hPa 0,0 l/m 0 min 0 min 0 W/m 6,3 km/h (2 Bft)
11.02.2015 00:08 5,0 C 3,3 C 96 % 1029,3 hPa 0,0 l/m 0 min 0 min 0 W/m 6,3 km/h (2 Bft)
11.02.2015 00:10 5,0 C 3,3 C 96 % 1029,3 hPa 0,0 l/m 0 min 0 min 0 W/m 10,5 km/h (2 Bft)
11.02.2015 00:12 5,0 C 3,3 C 96 % 1029,3 hPa 0,0 l/m 0 min 0 min 0 W/m 6,3 km/h (2 Bft)
11.02.2015 00:14 5,0 C 3,3 C 96 % 1029,3 hPa 0,0 l/m 0 min 0 min 0 W/m 8,4 km/h (2 Bft)
11.02.2015 00:16 5,0 C 3,3 C 96 % 1029,3 hPa 0,0 l/m 0 min 0 min 0 W/m 14,6 km/h (3 Bft)
11.02.2015 00:18 5,0 C 3,3 C 96 % 1029,2 hPa 0,0 l/m 0 min 0 min 0 W/m 10,5 km/h (2 Bft)
11.02.2015 00:20 5,0 C 3,3 C 96 % 1029,2 hPa 0,0 l/m 0 min 0 min 0 W/m 12,6 km/h (3 Bft)
11.02.2015 00:22 5,0 C 3,3 C 96 % 1029,2 hPa 0,0 l/m 0 min 0 min 0 W/m 12,6 km/h (3 Bft)
11.02.2015 00:24 5,0 C 3,9 C 96 % 1029,2 hPa 0,0 l/m 0 min 0 min 0 W/m 14,6 km/h (3 Bft)
11.02.2015 00:26 5,0 C 3,9 C 96 % 1029,3 hPa 0,0 l/m 0 min 0 min 0 W/m 10,5 km/h (2 Bft)
11.02.2015 00:28 5,0 C 3,9 C 96 % 1029,2 hPa 0,0 l/m 0 min 0 min 0 W/m 12,6 km/h (3 Bft)
11.02.2015 00:30 5,0 C 3,9 C 96 % 1029,2 hPa 0,0 l/m 0 min 0 min 0 W/m 10,5 km/h (2 Bft)
11.02.2015 00:32 5,0 C 3,9 C 96 % 1029,1 hPa 0,0 l/m 0 min 0 min 0 W/m 10,5 km/h (2 Bft)
11.02.2015 00:34 5,0 C 3,9 C 96 % 1029,1 hPa 0,0 l/m 0 min 0 min 0 W/m 10,5 km/h (2 Bft)
11.02.2015 00:36 5,0 C 3,9 C 95 % 1029,1 hPa 0,0 l/m 0 min 0 min 0 W/m 4,2 km/h (1 Bft)
11.02.2015 00:38 5,0 C 3,3 C 95 % 1029,1 hPa 0,0 l/m 0 min 0 min 0 W/m 6,3 km/h (2 Bft)
11.02.2015 00:40 5,0 C 3,3 C 95 % 1029,1 hPa 0,0 l/m 0 min 0 min 0 W/m 10,5 km/h (2 Bft)
11.02.2015 00:42 5,0 C 3,3 C 95 % 1029,1 hPa 0,0 l/m 0 min 0 min 0 W/m 10,5 km/h (2 Bft)
11.02.2015 00:44 5,0 C 3,3 C 95 % 1029,0 hPa 0,0 l/m 0 min 0 min 0 W/m 4,2 km/h (1 Bft)
11.02.2015 00:46 5,0 C 3,3 C 95 % 1028,9 hPa 0,0 l/m 0 min 0 min 0 W/m 4,2 km/h (1 Bft)
11.02.2015 00:48 5,1 C 3,3 C 95 % 1029,0 hPa 0,0 l/m 0 min 0 min 0 W/m 10,5 km/h (2 Bft)
11.02.2015 00:50 5,0 C 3,3 C 95 % 1028,9 hPa 0,0 l/m 0 min 0 min 0 W/m 4,2 km/h (1 Bft)
11.02.2015 00:52 5,1 C 3,3 C 95 % 1028,9 hPa 0,0 l/m 0 min 0 min 0 W/m 4,2 km/h (1 Bft)
11.02.2015 00:54 5,1 C 3,3 C 95 % 1028,9 hPa 0,0 l/m 0 min 0 min 0 W/m 6,3 km/h (2 Bft)
11.02.2015 00:56 5,1 C 3,3 C 95 % 1028,9 hPa 0,0 l/m 0 min 0 min 0 W/m 4,2 km/h (1 Bft)
11.02.2015 00:58 5,1 C 3,3 C 95 % 1028,8 hPa 0,0 l/m 0 min 0 min 0 W/m 2,1 km/h (1 Bft)
11.02.2015 01:00 5,1 C 3,3 C 95 % 1028,9 hPa 0,0 l/m 0 min 0 min 0 W/m 6,3 km/h (2 Bft)
11.02.2015 01:02 5,1 C 3,3 C 95 % 1028,8 hPa 0,0 l/m 0 min 0 min 0 W/m 6,3 km/h (2 Bft)
11.02.2015 01:04 5,1 C 3,3 C 95 % 1028,8 hPa 0,0 l/m 0 min 0 min 0 W/m 4,2 km/h (1 Bft)
11.02.2015 01:06 5,1 C 3,3 C 95 % 1028,8 hPa 0,0 l/m 0 min 0 min 0 W/m 4,2 km/h (1 Bft)
11.02.2015 01:08 5,1 C 3,3 C 95 % 1028,8 hPa 0,0 l/m 0 min 0 min 0 W/m 4,2 km/h (1 Bft)
11.02.2015 01:10 5,0 C 3,3 C 95 % 1028,8 hPa 0,0 l/m 0 min 0 min 0 W/m 6,3 km/h (2 Bft)
11.02.2015 01:12 5,0 C 3,3 C 95 % 1028,8 hPa 0,0 l/m 0 min 0 min 0 W/m 6,3 km/h (2 Bft)
11.02.2015 01:14 5,0 C 3,3 C 95 % 1028,8 hPa 0,0 l/m 0 min 0 min 0 W/m 6,3 km/h (2 Bft)
11.02.2015 01:16 5,0 C 3,3 C 95 % 1028,8 hPa 0,0 l/m 0 min 0 min 0 W/m 10,5 km/h (2 Bft)
11.02.2015 01:18 5,0 C 3,3 C 95 % 1028,8 hPa 0,0 l/m 0 min 0 min 0 W/m 4,2 km/h (1 Bft)
11.02.2015 01:20 5,0 C 3,3 C 95 % 1028,6 hPa 0,0 l/m 0 min 0 min 0 W/m 6,3 km/h (2 Bft)
11.02.2015 01:22 5,0 C 3,3 C 95 % 1028,6 hPa 0,0 l/m 0 min 0 min 0 W/m 8,4 km/h (2 Bft)
11.02.2015 01:24 5,0 C 3,3 C 95 % 1028,6 hPa 0,0 l/m 0 min 0 min 0 W/m 6,3 km/h (2 Bft)
11.02.2015 01:26 5,0 C 3,3 C 95 % 1028,6 hPa 0,0 l/m 0 min 0 min 0 W/m 6,3 km/h (2 Bft)
11.02.2015 01:28 5,0 C 3,3 C 95 % 1028,5 hPa 0,0 l/m 0 min 0 min 0 W/m 10,5 km/h (2 Bft)
11.02.2015 01:30 5,0 C 3,3 C 95 % 1028,6 hPa 0,0 l/m 0 min 0 min 0 W/m 6,3 km/h (2 Bft)
11.02.2015 01:32 4,9 C 3,3 C 95 % 1028,4 hPa 0,0 l/m 0 min 0 min 0 W/m 8,4 km/h (2 Bft)
11.02.2015 01:34 4,9 C 3,3 C 95 % 1028,4 hPa 0,0 l/m 0 min 0 min 0 W/m 6,3 km/h (2 Bft)
11.02.2015 01:36 4,9 C 3,3 C 95 % 1028,4 hPa 0,0 l/m 0 min 0 min 0 W/m 6,3 km/h (2 Bft)
11.02.2015 01:38 4,9 C 3,3 C 95 % 1028,5 hPa 0,0 l/m 0 min 0 min 0 W/m 6,3 km/h (2 Bft)
11.02.2015 01:40 4,9 C 3,3 C 95 % 1028,4 hPa 0,0 l/m 0 min 0 min 0 W/m 10,5 km/h (2 Bft)
11.02.2015 01:42 4,9 C 3,3 C 95 % 1028,3 hPa 0,0 l/m 0 min 0 min 0 W/m 8,4 km/h (2 Bft)
11.02.2015 01:44 4,9 C 3,3 C 95 % 1028,4 hPa 0,0 l/m 0 min 0 min 0 W/m 6,3 km/h (2 Bft)
11.02.2015 01:46 4,9 C 3,3 C 95 % 1028,4 hPa 0,0 l/m 0 min 0 min 0 W/m 6,3 km/h (2 Bft)
11.02.2015 01:48 4,9 C 3,3 C 95 % 1028,4 hPa 0,0 l/m 0 min 0 min 0 W/m 8,4 km/h (2 Bft)
11.02.2015 01:50 4,9 C 3,3 C 95 % 1028,3 hPa 0,0 l/m 0 min 0 min 0 W/m 8,4 km/h (2 Bft)
11.02.2015 01:52 4,9 C 3,3 C 95 % 1028,3 hPa 0,0 l/m 0 min 0 min 0 W/m 6,3 km/h (2 Bft)
11.02.2015 01:54 4,8 C 3,3 C 95 % 1028,3 hPa 0,0 l/m 0 min 0 min 0 W/m 8,4 km/h (2 Bft)
11.02.2015 01:56 4,8 C 3,3 C 95 % 1028,3 hPa 0,0 l/m 0 min 0 min 0 W/m 12,6 km/h (3 Bft)
11.02.2015 01:58 4,8 C 3,3 C 95 % 1028,3 hPa 0,0 l/m 0 min 0 min 0 W/m 10,5 km/h (2 Bft)
11.02.2015 02:00 4,8 C 3,3 C 95 % 1028,2 hPa 0,0 l/m 0 min 0 min 0 W/m 8,4 km/h (2 Bft)
11.02.2015 02:02 4,8 C 3,3 C 95 % 1028,2 hPa 0,0 l/m 0 min 0 min 0 W/m 12,6 km/h (3 Bft)
11.02.2015 02:04 4,8 C 3,3 C 95 % 1028,2 hPa 0,0 l/m 0 min 0 min 0 W/m 10,5 km/h (2 Bft)
11.02.2015 02:06 4,8 C 3,3 C 95 % 1028,2 hPa 0,0 l/m 0 min 0 min 0 W/m 8,4 km/h (2 Bft)
11.02.2015 02:08 4,8 C 3,3 C 95 % 1028,2 hPa 0,0 l/m 0 min 0 min 0 W/m 16,7 km/h (3 Bft)
11.02.2015 02:10 4,8 C 3,3 C 95 % 1028,2 hPa 0,0 l/m 0 min 0 min 0 W/m 14,6 km/h (3 Bft)
11.02.2015 02:12 4,8 C 3,3 C 94 % 1028,2 hPa 0,0 l/m 0 min 0 min 0 W/m 12,6 km/h (3 Bft)
11.02.2015 02:14 4,7 C 3,3 C 94 % 1028,1 hPa 0,0 l/m 0 min 0 min 0 W/m 12,6 km/h (3 Bft)
11.02.2015 02:16 4,7 C 3,3 C 94 % 1028,2 hPa 0,0 l/m 0 min 0 min 0 W/m 8,4 km/h (2 Bft)
11.02.2015 02:18 4,7 C 3,3 C 94 % 1028,1 hPa 0,0 l/m 0 min 0 min 0 W/m 8,4 km/h (2 Bft)
11.02.2015 02:20 4,7 C 3,3 C 94 % 1028,2 hPa 0,0 l/m 0 min 0 min 0 W/m 10,5 km/h (2 Bft)
11.02.2015 02:22 4,7 C 3,3 C 94 % 1028,1 hPa 0,0 l/m 0 min 0 min 0 W/m 12,6 km/h (3 Bft)
11.02.2015 02:24 4,7 C 3,3 C 94 % 1028,1 hPa 0,0 l/m 0 min 0 min 0 W/m 16,7 km/h (3 Bft)
11.02.2015 02:26 4,7 C 3,3 C 94 % 1028,1 hPa 0,0 l/m 0 min 0 min 0 W/m 14,6 km/h (3 Bft)
11.02.2015 02:28 4,7 C 3,3 C 94 % 1028,1 hPa 0,0 l/m 0 min 0 min 0 W/m 14,6 km/h (3 Bft)
11.02.2015 02:30 4,7 C 3,3 C 94 % 1028,0 hPa 0,0 l/m 0 min 0 min 0 W/m 12,6 km/h (3 Bft)
11.02.2015 02:32 4,7 C 3,3 C 94 % 1028,0 hPa 0,0 l/m 0 min 0 min 0 W/m 10,5 km/h (2 Bft)
11.02.2015 02:34 4,6 C 3,3 C 94 % 1027,9 hPa 0,0 l/m 0 min 0 min 0 W/m 18,8 km/h (3 Bft)
11.02.2015 02:36 4,6 C 3,3 C 93 % 1027,9 hPa 0,0 l/m 0 min 0 min 0 W/m 16,7 km/h (3 Bft)
11.02.2015 02:38 4,6 C 3,3 C 93 % 1027,9 hPa 0,0 l/m 0 min 0 min 0 W/m 14,6 km/h (3 Bft)
11.02.2015 02:40 4,6 C 3,3 C 93 % 1027,9 hPa 0,0 l/m 0 min 0 min 0 W/m 16,7 km/h (3 Bft)
11.02.2015 02:42 4,6 C 3,3 C 93 % 1027,8 hPa 0,0 l/m 0 min 0 min 0 W/m 14,6 km/h (3 Bft)
11.02.2015 02:44 4,6 C 3,3 C 93 % 1027,9 hPa 0,0 l/m 0 min 0 min 0 W/m 10,5 km/h (2 Bft)
11.02.2015 02:46 4,6 C 3,3 C 93 % 1027,9 hPa 0,0 l/m 0 min 0 min 0 W/m 8,4 km/h (2 Bft)
11.02.2015 02:48 4,6 C 3,3 C 93 % 1027,9 hPa 0,0 l/m 0 min 0 min 0 W/m 12,6 km/h (3 Bft)
11.02.2015 02:50 4,6 C 3,3 C 92 % 1027,9 hPa 0,0 l/m 0 min 0 min 0 W/m 12,6 km/h (3 Bft)
11.02.2015 02:52 4,6 C 2,8 C 92 % 1027,9 hPa 0,0 l/m 0 min 0 min 0 W/m 10,5 km/h (2 Bft)
11.02.2015 02:54 4,6 C 2,8 C 92 % 1027,9 hPa 0,0 l/m 0 min 0 min 0 W/m 14,6 km/h (3 Bft)
11.02.2015 02:56 4,6 C 2,8 C 92 % 1027,9 hPa 0,0 l/m 0 min 0 min 0 W/m 10,5 km/h (2 Bft)
11.02.2015 02:58 4,6 C 2,8 C 92 % 1027,9 hPa 0,0 l/m 0 min 0 min 0 W/m 14,6 km/h (3 Bft)
11.02.2015 03:00 4,6 C 2,8 C 92 % 1027,9 hPa 0,0 l/m 0 min 0 min 0 W/m 14,6 km/h (3 Bft)
11.02.2015 03:02 4,5 C 2,8 C 92 % 1027,9 hPa 0,0 l/m 0 min 0 min 0 W/m 12,6 km/h (3 Bft)
11.02.2015 03:04 4,5 C 2,8 C 92 % 1027,9 hPa 0,0 l/m 0 min 0 min 0 W/m 16,7 km/h (3 Bft)
11.02.2015 03:06 4,5 C 2,8 C 91 % 1027,9 hPa 0,0 l/m 0 min 0 min 0 W/m 16,7 km/h (3 Bft)
11.02.2015 03:08 4,5 C 2,8 C 91 % 1027,9 hPa 0,0 l/m 0 min 0 min 0 W/m 12,6 km/h (3 Bft)
11.02.2015 03:10 4,5 C 2,8 C 91 % 1027,8 hPa 0,0 l/m 0 min 0 min 0 W/m 14,6 km/h (3 Bft)
11.02.2015 03:12 4,5 C 2,8 C 91 % 1027,9 hPa 0,0 l/m 0 min 0 min 0 W/m 14,6 km/h (3 Bft)
11.02.2015 03:14 4,4 C 2,8 C 91 % 1027,9 hPa 0,0 l/m 0 min 0 min 0 W/m 12,6 km/h (3 Bft)
11.02.2015 03:16 4,4 C 2,8 C 91 % 1027,9 hPa 0,0 l/m 0 min 0 min 0 W/m 14,6 km/h (3 Bft)
11.02.2015 03:18 4,4 C 2,8 C 90 % 1027,8 hPa 0,0 l/m 0 min 0 min 0 W/m 14,6 km/h (3 Bft)
11.02.2015 03:20 4,4 C 2,8 C 90 % 1027,8 hPa 0,0 l/m 0 min 0 min 0 W/m 16,7 km/h (3 Bft)
11.02.2015 03:22 4,4 C 2,8 C 90 % 1027,8 hPa 0,0 l/m 0 min 0 min 0 W/m 12,6 km/h (3 Bft)
11.02.2015 03:24 4,4 C 2,8 C 90 % 1027,8 hPa 0,0 l/m 0 min 0 min 0 W/m 14,6 km/h (3 Bft)
11.02.2015 03:26 4,4 C 2,8 C 90 % 1027,8 hPa 0,0 l/m 0 min 0 min 0 W/m 18,8 km/h (3 Bft)
11.02.2015 03:28 4,4 C 2,8 C 90 % 1027,8 hPa 0,0 l/m 0 min 0 min 0 W/m 18,8 km/h (3 Bft)
11.02.2015 03:30 4,4 C 2,8 C 90 % 1027,8 hPa 0,0 l/m 0 min 0 min 0 W/m 14,6 km/h (3 Bft)
11.02.2015 03:32 4,4 C 2,8 C 90 % 1027,8 hPa 0,0 l/m 0 min 0 min 0 W/m 10,5 km/h (2 Bft)
11.02.2015 03:34 4,4 C 2,8 C 90 % 1027,8 hPa 0,0 l/m 0 min 0 min 0 W/m 12,6 km/h (3 Bft)
11.02.2015 03:36 4,4 C 2,8 C 90 % 1027,8 hPa 0,0 l/m 0 min 0 min 0 W/m 12,6 km/h (3 Bft)
11.02.2015 03:38 4,4 C 2,8 C 90 % 1027,8 hPa 0,0 l/m 0 min 0 min 0 W/m 14,6 km/h (3 Bft)
11.02.2015 03:40 4,4 C 2,8 C 90 % 1027,8 hPa 0,0 l/m 0 min 0 min 0 W/m 18,8 km/h (3 Bft)
11.02.2015 03:42 4,4 C 2,8 C 90 % 1027,7 hPa 0,0 l/m 0 min 0 min 0 W/m 14,6 km/h (3 Bft)
11.02.2015 03:44 4,4 C 2,8 C 90 % 1027,7 hPa 0,0 l/m 0 min 0 min 0 W/m 14,6 km/h (3 Bft)
11.02.2015 03:46 4,4 C 2,8 C 89 % 1027,7 hPa 0,0 l/m 0 min 0 min 0 W/m 12,6 km/h (3 Bft)
11.02.2015 03:48 4,4 C 2,8 C 89 % 1027,7 hPa 0,0 l/m 0 min 0 min 0 W/m 16,7 km/h (3 Bft)
11.02.2015 03:50 4,4 C 2,8 C 89 % 1027,7 hPa 0,0 l/m 0 min 0 min 0 W/m 14,6 km/h (3 Bft)
11.02.2015 03:52 4,4 C 2,8 C 89 % 1027,6 hPa 0,0 l/m 0 min 0 min 0 W/m 18,8 km/h (3 Bft)
11.02.2015 03:54 4,4 C 2,8 C 89 % 1027,6 hPa 0,0 l/m 0 min 0 min 0 W/m 14,6 km/h (3 Bft)
11.02.2015 03:56 4,4 C 2,8 C 89 % 1027,5 hPa 0,0 l/m 0 min 0 min 0 W/m 16,7 km/h (3 Bft)
11.02.2015 03:58 4,4 C 2,8 C 89 % 1027,6 hPa 0,0 l/m 0 min 0 min 0 W/m 8,4 km/h (2 Bft)
11.02.2015 04:00 4,4 C 2,8 C 89 % 1027,5 hPa 0,0 l/m 0 min 0 min 0 W/m 8,4 km/h (2 Bft)
11.02.2015 04:02 4,4 C 2,8 C 89 % 1027,4 hPa 0,0 l/m 0 min 0 min 0 W/m 6,3 km/h (2 Bft)
11.02.2015 04:04 4,4 C 2,8 C 89 % 1027,3 hPa 0,0 l/m 0 min 0 min 0 W/m 8,4 km/h (2 Bft)
11.02.2015 04:06 4,3 C 2,8 C 89 % 1027,4 hPa 0,0 l/m 0 min 0 min 0 W/m 12,6 km/h (3 Bft)
11.02.2015 04:08 4,3 C 2,8 C 89 % 1027,4 hPa 0,0 l/m 0 min 0 min 0 W/m 16,7 km/h (3 Bft)
11.02.2015 04:10 4,3 C 2,8 C 89 % 1027,4 hPa 0,0 l/m 0 min 0 min 0 W/m 16,7 km/h (3 Bft)
11.02.2015 04:12 4,3 C 2,8 C 89 % 1027,5 hPa 0,0 l/m 0 min 0 min 0 W/m 8,4 km/h (2 Bft)
11.02.2015 04:14 4,3 C 2,8 C 89 % 1027,4 hPa 0,0 l/m 0 min 0 min 0 W/m 14,6 km/h (3 Bft)
11.02.2015 04:16 4,3 C 2,8 C 89 % 1027,4 hPa 0,0 l/m 0 min 0 min 0 W/m 16,7 km/h (3 Bft)
11.02.2015 04:18 4,3 C 2,8 C 89 % 1027,4 hPa 0,0 l/m 0 min 0 min 0 W/m 8,4 km/h (2 Bft)
11.02.2015 04:20 4,3 C 2,8 C 89 % 1027,3 hPa 0,0 l/m 0 min 0 min 0 W/m 10,5 km/h (2 Bft)
11.02.2015 04:22 4,3 C 2,8 C 89 % 1027,3 hPa 0,0 l/m 0 min 0 min 0 W/m 10,5 km/h (2 Bft)
11.02.2015 04:24 4,3 C 2,8 C 89 % 1027,3 hPa 0,0 l/m 0 min 0 min 0 W/m 14,6 km/h (3 Bft)
11.02.2015 04:26 4,3 C 2,8 C 89 % 1027,3 hPa 0,0 l/m 0 min 0 min 0 W/m 18,8 km/h (3 Bft)
11.02.2015 04:28 4,3 C 2,8 C 89 % 1027,3 hPa 0,0 l/m 0 min 0 min 0 W/m 18,8 km/h (3 Bft)
11.02.2015 04:30 4,2 C 2,8 C 89 % 1027,3 hPa 0,0 l/m 0 min 0 min 0 W/m 16,7 km/h (3 Bft)
11.02.2015 04:32 4,2 C 2,8 C 89 % 1027,3 hPa 0,0 l/m 0 min 0 min 0 W/m 20,9 km/h (4 Bft)
11.02.2015 04:34 4,2 C 2,8 C 89 % 1027,3 hPa 0,0 l/m 0 min 0 min 0 W/m 18,8 km/h (3 Bft)
11.02.2015 04:36 4,2 C 2,8 C 89 % 1027,3 hPa 0,0 l/m 0 min 0 min 0 W/m 16,7 km/h (3 Bft)
11.02.2015 04:38 4,2 C 2,8 C 89 % 1027,2 hPa 0,0 l/m 0 min 0 min 0 W/m 16,7 km/h (3 Bft)
11.02.2015 04:40 4,2 C 2,8 C 88 % 1027,2 hPa 0,0 l/m 0 min 0 min 0 W/m 20,9 km/h (4 Bft)
11.02.2015 04:42 4,2 C 2,8 C 88 % 1027,2 hPa 0,0 l/m 0 min 0 min 0 W/m 20,9 km/h (4 Bft)
11.02.2015 04:44 4,2 C 2,8 C 88 % 1027,2 hPa 0,0 l/m 0 min 0 min 0 W/m 23,0 km/h (4 Bft)
11.02.2015 04:46 4,1 C 2,8 C 88 % 1027,3 hPa 0,0 l/m 0 min 0 min 0 W/m 23,0 km/h (4 Bft)
11.02.2015 04:48 4,1 C 2,8 C 88 % 1027,3 hPa 0,0 l/m 0 min 0 min 0 W/m 16,7 km/h (3 Bft)
11.02.2015 04:50 4,1 C 2,8 C 88 % 1027,3 hPa 0,0 l/m 0 min 0 min 0 W/m 16,7 km/h (3 Bft)
11.02.2015 04:52 4,1 C 2,8 C 88 % 1027,2 hPa 0,0 l/m 0 min 0 min 0 W/m 10,5 km/h (2 Bft)
11.02.2015 04:54 4,1 C 2,8 C 88 % 1027,2 hPa 0,0 l/m 0 min 0 min 0 W/m 10,5 km/h (2 Bft)
11.02.2015 04:56 4,1 C 2,8 C 88 % 1027,2 hPa 0,0 l/m 0 min 0 min 0 W/m 10,5 km/h (2 Bft)
11.02.2015 04:58 4,1 C 2,8 C 88 % 1027,2 hPa 0,0 l/m 0 min 0 min 0 W/m 10,5 km/h (2 Bft)
11.02.2015 05:00 4,1 C 2,8 C 88 % 1027,2 hPa 0,0 l/m 0 min 0 min 0 W/m 12,6 km/h (3 Bft)
11.02.2015 05:02 4,1 C 2,8 C 88 % 1027,2 hPa 0,0 l/m 0 min 0 min 0 W/m 8,4 km/h (2 Bft)
11.02.2015 05:04 4,1 C 2,8 C 88 % 1027,2 hPa 0,0 l/m 0 min 0 min 0 W/m 14,6 km/h (3 Bft)
11.02.2015 05:06 4,1 C 2,8 C 88 % 1027,3 hPa 0,0 l/m 0 min 0 min 0 W/m 18,8 km/h (3 Bft)
11.02.2015 05:08 4,1 C 2,8 C 88 % 1027,3 hPa 0,0 l/m 0 min 0 min 0 W/m 14,6 km/h (3 Bft)
11.02.2015 05:10 4,1 C 2,8 C 88 % 1027,3 hPa 0,0 l/m 0 min 0 min 0 W/m 14,6 km/h (3 Bft)
11.02.2015 05:12 4,1 C 2,8 C 88 % 1027,3 hPa 0,0 l/m 0 min 0 min 0 W/m 10,5 km/h (2 Bft)
11.02.2015 05:14 4,0 C 2,8 C 88 % 1027,3 hPa 0,0 l/m 0 min 0 min 0 W/m 12,6 km/h (3 Bft)
11.02.2015 05:16 4,0 C 2,8 C 88 % 1027,3 hPa 0,0 l/m 0 min 0 min 0 W/m 14,6 km/h (3 Bft)
11.02.2015 05:18 4,0 C 2,8 C 88 % 1027,3 hPa 0,0 l/m 0 min 0 min 0 W/m 14,6 km/h (3 Bft)
11.02.2015 05:20 4,0 C 2,8 C 88 % 1027,2 hPa 0,0 l/m 0 min 0 min 0 W/m 16,7 km/h (3 Bft)
11.02.2015 05:22 4,0 C 2,8 C 88 % 1027,3 hPa 0,0 l/m 0 min 0 min 0 W/m 16,7 km/h (3 Bft)
11.02.2015 05:24 4,0 C 2,8 C 88 % 1027,4 hPa 0,0 l/m 0 min 0 min 0 W/m 8,4 km/h (2 Bft)
11.02.2015 05:26 3,9 C 2,8 C 88 % 1027,3 hPa 0,0 l/m 0 min 0 min 0 W/m 10,5 km/h (2 Bft)
11.02.2015 05:28 3,9 C 2,8 C 88 % 1027,4 hPa 0,0 l/m 0 min 0 min 0 W/m 16,7 km/h (3 Bft)
11.02.2015 05:30 3,9 C 2,8 C 88 % 1027,4 hPa 0,0 l/m 0 min 0 min 0 W/m 10,5 km/h (2 Bft)
11.02.2015 05:32 3,9 C 2,8 C 88 % 1027,3 hPa 0,0 l/m 0 min 0 min 0 W/m 14,6 km/h (3 Bft)
11.02.2015 05:34 3,9 C 2,8 C 88 % 1027,3 hPa 0,0 l/m 0 min 0 min 0 W/m 10,5 km/h (2 Bft)
11.02.2015 05:36 3,9 C 2,8 C 88 % 1027,3 hPa 0,0 l/m 0 min 0 min 0 W/m 8,4 km/h (2 Bft)
11.02.2015 05:38 3,9 C 2,8 C 88 % 1027,3 hPa 0,0 l/m 0 min 0 min 0 W/m 8,4 km/h (2 Bft)
11.02.2015 05:40 3,9 C 2,8 C 88 % 1027,3 hPa 0,0 l/m 0 min 0 min 0 W/m 10,5 km/h (2 Bft)
11.02.2015 05:42 3,9 C 2,8 C 88 % 1027,3 hPa 0,0 l/m 0 min 0 min 0 W/m 14,6 km/h (3 Bft)
11.02.2015 05:44 3,9 C 2,2 C 88 % 1027,2 hPa 0,0 l/m 0 min 0 min 0 W/m 18,8 km/h (3 Bft)
11.02.2015 05:46 3,9 C 2,8 C 88 % 1027,2 hPa 0,0 l/m 0 min 0 min 0 W/m 23,0 km/h (4 Bft)
11.02.2015 05:48 3,8 C 2,8 C 88 % 1027,2 hPa 0,0 l/m 0 min 0 min 0 W/m 16,7 km/h (3 Bft)
11.02.2015 05:50 3,8 C 2,8 C 88 % 1027,1 hPa 0,0 l/m 0 min 0 min 0 W/m 16,7 km/h (3 Bft)
11.02.2015 05:52 3,8 C 2,8 C 88 % 1027,1 hPa 0,0 l/m 0 min 0 min 0 W/m 18,8 km/h (3 Bft)
11.02.2015 05:54 3,8 C 2,8 C 88 % 1027,2 hPa 0,0 l/m 0 min 0 min 0 W/m 16,7 km/h (3 Bft)
11.02.2015 05:56 3,8 C 2,8 C 88 % 1027,2 hPa 0,0 l/m 0 min 0 min 0 W/m 20,9 km/h (4 Bft)
11.02.2015 05:58 3,8 C 2,8 C 88 % 1027,2 hPa 0,0 l/m 0 min 0 min 0 W/m 18,8 km/h (3 Bft)
11.02.2015 06:00 3,8 C 2,2 C 88 % 1027,1 hPa 0,0 l/m 0 min 0 min 0 W/m 16,7 km/h (3 Bft)
11.02.2015 06:02 3,8 C 2,2 C 88 % 1027,1 hPa 0,0 l/m 0 min 0 min 0 W/m 18,8 km/h (3 Bft)
11.02.2015 06:06 3,8 C 2,2 C 88 % 1027,1 hPa 0,0 l/m 0 min 0 min 0 W/m 20,9 km/h (4 Bft)
11.02.2015 06:08 3,8 C 2,2 C 88 % 1027,1 hPa 0,0 l/m 0 min 0 min 0 W/m 18,8 km/h (3 Bft)
11.02.2015 06:10 3,7 C 2,2 C 88 % 1027,2 hPa 0,0 l/m 0 min 0 min 0 W/m 16,7 km/h (3 Bft)
11.02.2015 06:12 3,7 C 2,2 C 88 % 1027,1 hPa 0,0 l/m 0 min 0 min 0 W/m 20,9 km/h (4 Bft)
11.02.2015 06:14 3,7 C 2,2 C 88 % 1027,1 hPa 0,0 l/m 0 min 0 min 0 W/m 14,6 km/h (3 Bft)
11.02.2015 06:16 3,7 C 2,2 C 88 % 1027,1 hPa 0,0 l/m 0 min 0 min 0 W/m 14,6 km/h (3 Bft)
11.02.2015 06:18 3,7 C 2,2 C 88 % 1027,1 hPa 0,0 l/m 0 min 0 min 0 W/m 14,6 km/h (3 Bft)
11.02.2015 06:20 3,7 C 2,2 C 87 % 1027,1 hPa 0,0 l/m 0 min 0 min 0 W/m 16,7 km/h (3 Bft)
11.02.2015 06:22 3,7 C 2,2 C 87 % 1027,1 hPa 0,0 l/m 0 min 0 min 0 W/m 23,0 km/h (4 Bft)
11.02.2015 06:24 3,7 C 2,2 C 87 % 1027,1 hPa 0,0 l/m 0 min 0 min 0 W/m 18,8 km/h (3 Bft)
11.02.2015 06:26 3,7 C 2,2 C 87 % 1027,0 hPa 0,0 l/m 0 min 0 min 0 W/m 16,7 km/h (3 Bft)
11.02.2015 06:28 3,7 C 2,2 C 87 % 1027,0 hPa 0,0 l/m 0 min 0 min 0 W/m 20,9 km/h (4 Bft)
11.02.2015 06:30 3,7 C 2,2 C 87 % 1026,9 hPa 0,0 l/m 0 min 0 min 0 W/m 16,7 km/h (3 Bft)
11.02.2015 06:32 3,7 C 2,2 C 87 % 1026,9 hPa 0,0 l/m 0 min 0 min 0 W/m 16,7 km/h (3 Bft)
11.02.2015 06:34 3,7 C 2,2 C 87 % 1027,0 hPa 0,0 l/m 0 min 0 min 0 W/m 14,6 km/h (3 Bft)
11.02.2015 06:36 3,6 C 2,2 C 87 % 1026,9 hPa 0,0 l/m 0 min 0 min 0 W/m 16,7 km/h (3 Bft)
11.02.2015 06:38 3,6 C 2,2 C 87 % 1026,9 hPa 0,0 l/m 0 min 0 min 0 W/m 12,6 km/h (3 Bft)
11.02.2015 06:40 3,7 C 2,2 C 87 % 1026,9 hPa 0,0 l/m 0 min 0 min 0 W/m 10,5 km/h (2 Bft)
11.02.2015 06:42 3,6 C 2,2 C 87 % 1027,0 hPa 0,0 l/m 0 min 0 min 0 W/m 10,5 km/h (2 Bft)
11.02.2015 06:44 3,6 C 2,2 C 87 % 1026,9 hPa 0,0 l/m 0 min 0 min 0 W/m 12,6 km/h (3 Bft)
11.02.2015 06:46 3,6 C 2,2 C 88 % 1026,9 hPa 0,0 l/m 0 min 0 min 0 W/m 18,8 km/h (3 Bft)
11.02.2015 06:48 3,6 C 2,2 C 88 % 1026,9 hPa 0,0 l/m 0 min 0 min 0 W/m 16,7 km/h (3 Bft)
11.02.2015 06:50 3,6 C 2,2 C 88 % 1026,9 hPa 0,0 l/m 0 min 0 min 0 W/m 10,5 km/h (2 Bft)
11.02.2015 06:52 3,6 C 2,2 C 88 % 1026,9 hPa 0,0 l/m 0 min 0 min 0 W/m 14,6 km/h (3 Bft)
11.02.2015 06:54 3,6 C 2,2 C 88 % 1026,8 hPa 0,0 l/m 0 min 0 min 0 W/m 14,6 km/h (3 Bft)
11.02.2015 06:56 3,6 C 2,2 C 88 % 1026,8 hPa 0,0 l/m 0 min 0 min 0 W/m 16,7 km/h (3 Bft)
11.02.2015 06:58 3,6 C 2,2 C 88 % 1026,8 hPa 0,0 l/m 0 min 0 min 0 W/m 23,0 km/h (4 Bft)
11.02.2015 07:00 3,6 C 2,2 C 88 % 1026,8 hPa 0,0 l/m 0 min 0 min 0 W/m 18,8 km/h (3 Bft)
11.02.2015 07:02 3,6 C 2,2 C 88 % 1026,7 hPa 0,0 l/m 0 min 0 min 0 W/m 10,5 km/h (2 Bft)
11.02.2015 07:04 3,6 C 2,2 C 88 % 1026,8 hPa 0,0 l/m 0 min 0 min 0 W/m 14,6 km/h (3 Bft)
11.02.2015 07:06 3,6 C 2,2 C 88 % 1026,8 hPa 0,0 l/m 0 min 0 min 0 W/m 16,7 km/h (3 Bft)
11.02.2015 07:08 3,6 C 2,2 C 88 % 1026,8 hPa 0,0 l/m 0 min 0 min 0 W/m 14,6 km/h (3 Bft)
11.02.2015 07:10 3,6 C 2,2 C 88 % 1026,7 hPa 0,0 l/m 0 min 0 min 0 W/m 14,6 km/h (3 Bft)
11.02.2015 07:12 3,6 C 2,2 C 88 % 1026,8 hPa 0,0 l/m 0 min 0 min 0 W/m 12,6 km/h (3 Bft)
11.02.2015 07:14 3,6 C 2,2 C 88 % 1026,7 hPa 0,0 l/m 0 min 0 min 0 W/m 14,6 km/h (3 Bft)
11.02.2015 07:16 3,6 C 2,2 C 88 % 1026,7 hPa 0,0 l/m 0 min 0 min 0 W/m 16,7 km/h (3 Bft)
11.02.2015 07:18 3,6 C 2,2 C 88 % 1026,8 hPa 0,0 l/m 0 min 0 min 0 W/m 18,8 km/h (3 Bft)
11.02.2015 07:20 3,6 C 2,2 C 88 % 1026,7 hPa 0,0 l/m 0 min 0 min 0 W/m 18,8 km/h (3 Bft)
11.02.2015 07:22 3,6 C 2,2 C 88 % 1026,8 hPa 0,0 l/m 0 min 0 min 0 W/m 14,6 km/h (3 Bft)
11.02.2015 07:24 3,6 C 2,2 C 88 % 1026,8 hPa 0,0 l/m 0 min 0 min 0 W/m 6,3 km/h (2 Bft)
11.02.2015 07:26 3,6 C 2,2 C 88 % 1026,8 hPa 0,0 l/m 0 min 0 min 0 W/m 12,6 km/h (3 Bft)
11.02.2015 07:28 3,6 C 2,2 C 88 % 1026,7 hPa 0,0 l/m 0 min 0 min 0 W/m 12,6 km/h (3 Bft)
11.02.2015 07:30 3,6 C 2,2 C 88 % 1026,8 hPa 0,0 l/m 0 min 0 min 0 W/m 8,4 km/h (2 Bft)
11.02.2015 07:32 3,6 C 2,2 C 88 % 1026,8 hPa 0,0 l/m 0 min 0 min 0 W/m 20,9 km/h (4 Bft)
11.02.2015 07:34 3,6 C 2,2 C 88 % 1026,8 hPa 0,0 l/m 0 min 0 min 0 W/m 23,0 km/h (4 Bft)
11.02.2015 07:36 3,6 C 2,2 C 88 % 1026,9 hPa 0,0 l/m 0 min 0 min 0 W/m 14,6 km/h (3 Bft)
11.02.2015 07:38 3,6 C 2,2 C 88 % 1026,8 hPa 0,0 l/m 0 min 0 min 0 W/m 14,6 km/h (3 Bft)
11.02.2015 07:40 3,6 C 2,2 C 88 % 1026,8 hPa 0,0 l/m 0 min 0 min 0 W/m 12,6 km/h (3 Bft)
11.02.2015 07:42 3,6 C 2,2 C 88 % 1026,9 hPa 0,0 l/m 0 min 0 min 0 W/m 14,6 km/h (3 Bft)
11.02.2015 07:44 3,6 C 2,2 C 88 % 1026,9 hPa 0,0 l/m 0 min 0 min 0 W/m 16,7 km/h (3 Bft)
11.02.2015 07:46 3,6 C 2,2 C 88 % 1026,9 hPa 0,0 l/m 0 min 0 min 0 W/m 12,6 km/h (3 Bft)
11.02.2015 07:48 3,6 C 2,2 C 88 % 1026,8 hPa 0,0 l/m 0 min 0 min 0 W/m 12,6 km/h (3 Bft)
11.02.2015 07:50 3,6 C 2,2 C 88 % 1026,9 hPa 0,0 l/m 0 min 0 min 0 W/m 12,6 km/h (3 Bft)
11.02.2015 07:52 3,6 C 2,2 C 88 % 1026,8 hPa 0,0 l/m 0 min 0 min 0 W/m 12,6 km/h (3 Bft)
11.02.2015 07:54 3,6 C 2,2 C 88 % 1026,8 hPa 0,0 l/m 0 min 0 min 0 W/m 10,5 km/h (2 Bft)
11.02.2015 07:56 3,6 C 2,2 C 88 % 1026,8 hPa 0,0 l/m 0 min 0 min 0 W/m 12,6 km/h (3 Bft)
11.02.2015 07:58 3,6 C 2,2 C 88 % 1026,8 hPa 0,0 l/m 0 min 0 min 0 W/m 10,5 km/h (2 Bft)
11.02.2015 08:00 3,6 C 2,2 C 88 % 1026,8 hPa 0,0 l/m 0 min 0 min 0 W/m 14,6 km/h (3 Bft)
11.02.2015 08:02 3,6 C 2,2 C 88 % 1026,8 hPa 0,0 l/m 0 min 0 min 0 W/m 16,7 km/h (3 Bft)
11.02.2015 08:04 3,6 C 2,2 C 88 % 1026,8 hPa 0,0 l/m 0 min 0 min 0 W/m 8,4 km/h (2 Bft)
11.02.2015 08:06 3,6 C 2,2 C 88 % 1026,8 hPa 0,0 l/m 0 min 0 min 1 W/m 6,3 km/h (2 Bft)
11.02.2015 08:08 3,6 C 2,2 C 88 % 1026,8 hPa 0,0 l/m 0 min 0 min 5 W/m 8,4 km/h (2 Bft)
11.02.2015 08:10 3,6 C 2,2 C 88 % 1026,8 hPa 0,0 l/m 0 min 0 min 5 W/m 6,3 km/h (2 Bft)
11.02.2015 08:12 3,6 C 2,2 C 88 % 1026,8 hPa 0,0 l/m 0 min 0 min 5 W/m 12,6 km/h (3 Bft)
11.02.2015 08:14 3,6 C 2,2 C 88 % 1026,8 hPa 0,0 l/m 0 min 0 min 5 W/m 16,7 km/h (3 Bft)
11.02.2015 08:16 3,6 C 2,2 C 88 % 1026,8 hPa 0,0 l/m 0 min 0 min 7 W/m 16,7 km/h (3 Bft)
11.02.2015 08:18 3,6 C 2,2 C 88 % 1026,8 hPa 0,0 l/m 0 min 0 min 7 W/m 14,6 km/h (3 Bft)
11.02.2015 08:20 3,6 C 2,2 C 88 % 1026,8 hPa 0,0 l/m 0 min 0 min 7 W/m 12,6 km/h (3 Bft)
11.02.2015 08:22 3,6 C 2,2 C 88 % 1026,8 hPa 0,0 l/m 0 min 0 min 7 W/m 20,9 km/h (4 Bft)
11.02.2015 08:24 3,6 C 2,2 C 88 % 1026,8 hPa 0,0 l/m 0 min 0 min 9 W/m 14,6 km/h (3 Bft)
11.02.2015 08:26 3,6 C 2,2 C 88 % 1026,9 hPa 0,0 l/m 0 min 0 min 9 W/m 12,6 km/h (3 Bft)
11.02.2015 08:28 3,6 C 2,2 C 88 % 1026,9 hPa 0,0 l/m 0 min 0 min 11 W/m 10,5 km/h (2 Bft)
11.02.2015 08:30 3,6 C 2,2 C 88 % 1026,8 hPa 0,0 l/m 0 min 0 min 11 W/m 8,4 km/h (2 Bft)
11.02.2015 08:32 3,6 C 2,2 C 88 % 1026,8 hPa 0,0 l/m 0 min 0 min 11 W/m 14,6 km/h (3 Bft)
11.02.2015 08:34 3,6 C 2,8 C 88 % 1026,8 hPa 0,0 l/m 0 min 0 min 12 W/m 12,6 km/h (3 Bft)
11.02.2015 08:36 3,6 C 2,8 C 88 % 1026,8 hPa 0,0 l/m 0 min 0 min 12 W/m 16,7 km/h (3 Bft)
11.02.2015 08:38 3,6 C 2,8 C 88 % 1026,8 hPa 0,0 l/m 0 min 0 min 14 W/m 12,6 km/h (3 Bft)
11.02.2015 08:40 3,6 C 2,8 C 88 % 1026,8 hPa 0,0 l/m 0 min 0 min 16 W/m 12,6 km/h (3 Bft)
11.02.2015 08:42 3,6 C 2,8 C 88 % 1026,8 hPa 0,0 l/m 0 min 0 min 16 W/m 14,6 km/h (3 Bft)
11.02.2015 08:44 3,6 C 2,8 C 89 % 1026,8 hPa 0,0 l/m 0 min 0 min 16 W/m 10,5 km/h (2 Bft)
11.02.2015 08:46 3,6 C 2,8 C 89 % 1026,8 hPa 0,0 l/m 0 min 0 min 16 W/m 10,5 km/h (2 Bft)
11.02.2015 08:48 3,6 C 2,8 C 89 % 1026,8 hPa 0,0 l/m 0 min 0 min 18 W/m 18,8 km/h (3 Bft)
11.02.2015 08:50 3,6 C 2,8 C 89 % 1026,8 hPa 0,0 l/m 0 min 0 min 19 W/m 18,8 km/h (3 Bft)
11.02.2015 08:52 3,6 C 2,8 C 89 % 1026,8 hPa 0,0 l/m 0 min 0 min 19 W/m 18,8 km/h (3 Bft)
11.02.2015 08:54 3,6 C 2,8 C 89 % 1026,8 hPa 0,0 l/m 0 min 0 min 21 W/m 14,6 km/h (3 Bft)
11.02.2015 08:56 3,6 C 2,8 C 89 % 1026,8 hPa 0,0 l/m 0 min 0 min 22 W/m 10,5 km/h (2 Bft)
11.02.2015 08:58 3,6 C 2,8 C 89 % 1026,8 hPa 0,0 l/m 0 min 0 min 25 W/m 10,5 km/h (2 Bft)
11.02.2015 09:00 3,6 C 2,8 C 89 % 1026,8 hPa 0,0 l/m 0 min 0 min 24 W/m 16,7 km/h (3 Bft)
11.02.2015 09:02 3,6 C 2,8 C 89 % 1026,8 hPa 0,0 l/m 0 min 0 min 25 W/m 18,8 km/h (3 Bft)
11.02.2015 09:04 3,6 C 2,8 C 88 % 1026,8 hPa 0,0 l/m 0 min 0 min 25 W/m 18,8 km/h (3 Bft)
11.02.2015 09:06 3,6 C 2,8 C 88 % 1026,8 hPa 0,0 l/m 0 min 0 min 25 W/m 14,6 km/h (3 Bft)
11.02.2015 09:08 3,6 C 2,8 C 88 % 1026,8 hPa 0,0 l/m 0 min 0 min 27 W/m 14,6 km/h (3 Bft)
11.02.2015 09:10 3,6 C 2,8 C 88 % 1026,8 hPa 0,0 l/m 0 min 0 min 29 W/m 14,6 km/h (3 Bft)
11.02.2015 09:12 3,6 C 2,8 C 88 % 1026,8 hPa 0,0 l/m 0 min 0 min 30 W/m 18,8 km/h (3 Bft)
11.02.2015 09:14 3,6 C 2,8 C 88 % 1026,8 hPa 0,0 l/m 0 min 0 min 32 W/m 18,8 km/h (3 Bft)
11.02.2015 09:16 3,6 C 2,8 C 88 % 1026,8 hPa 0,0 l/m 0 min 0 min 32 W/m 14,6 km/h (3 Bft)
11.02.2015 09:18 3,6 C 2,8 C 88 % 1026,8 hPa 0,0 l/m 0 min 0 min 33 W/m 12,6 km/h (3 Bft)
11.02.2015 09:20 3,7 C 2,8 C 88 % 1026,7 hPa 0,0 l/m 0 min 0 min 35 W/m 14,6 km/h (3 Bft)
11.02.2015 09:22 3,7 C 2,8 C 88 % 1026,7 hPa 0,0 l/m 0 min 0 min 37 W/m 16,7 km/h (3 Bft)
11.02.2015 09:24 3,7 C 2,8 C 88 % 1026,7 hPa 0,0 l/m 0 min 0 min 39 W/m 14,6 km/h (3 Bft)
11.02.2015 09:26 3,7 C 2,8 C 88 % 1026,7 hPa 0,0 l/m 0 min 0 min 39 W/m 14,6 km/h (3 Bft)
11.02.2015 09:28 3,7 C 2,8 C 88 % 1026,6 hPa 0,0 l/m 0 min 0 min 41 W/m 18,8 km/h (3 Bft)
11.02.2015 09:30 3,7 C 2,8 C 88 % 1026,6 hPa 0,0 l/m 0 min 0 min 43 W/m 16,7 km/h (3 Bft)
11.02.2015 09:32 3,7 C 2,8 C 88 % 1026,6 hPa 0,0 l/m 0 min 0 min 44 W/m 16,7 km/h (3 Bft)
11.02.2015 09:34 3,7 C 2,8 C 88 % 1026,6 hPa 0,0 l/m 0 min 0 min 44 W/m 12,6 km/h (3 Bft)
11.02.2015 09:36 3,7 C 2,8 C 88 % 1026,5 hPa 0,0 l/m 0 min 0 min 47 W/m 16,7 km/h (3 Bft)
11.02.2015 09:38 3,7 C 2,8 C 88 % 1026,5 hPa 0,0 l/m 0 min 0 min 49 W/m 18,8 km/h (3 Bft)
11.02.2015 09:40 3,7 C 3,3 C 88 % 1026,6 hPa 0,0 l/m 0 min 0 min 51 W/m 18,8 km/h (3 Bft)
11.02.2015 09:42 3,8 C 3,3 C 88 % 1026,5 hPa 0,0 l/m 0 min 0 min 50 W/m 18,8 km/h (3 Bft)
11.02.2015 09:44 3,8 C 3,3 C 88 % 1026,5 hPa 0,0 l/m 0 min 0 min 52 W/m 16,7 km/h (3 Bft)
11.02.2015 09:46 3,8 C 3,3 C 88 % 1026,5 hPa 0,0 l/m 0 min 0 min 52 W/m 16,7 km/h (3 Bft)
11.02.2015 09:48 3,8 C 3,3 C 88 % 1026,6 hPa 0,0 l/m 0 min 0 min 54 W/m 20,9 km/h (4 Bft)
11.02.2015 09:50 3,8 C 3,3 C 88 % 1026,6 hPa 0,0 l/m 0 min 0 min 55 W/m 14,6 km/h (3 Bft)
11.02.2015 09:52 3,8 C 3,3 C 88 % 1026,5 hPa 0,0 l/m 0 min 0 min 56 W/m 20,9 km/h (4 Bft)
11.02.2015 09:54 3,8 C 3,3 C 88 % 1026,5 hPa 0,0 l/m 0 min 0 min 57 W/m 14,6 km/h (3 Bft)
11.02.2015 09:56 3,8 C 3,3 C 88 % 1026,5 hPa 0,0 l/m 0 min 0 min 59 W/m 10,5 km/h (2 Bft)
11.02.2015 09:58 3,9 C 3,3 C 88 % 1026,5 hPa 0,0 l/m 0 min 0 min 61 W/m 18,8 km/h (3 Bft)
11.02.2015 10:00 3,9 C 3,3 C 88 % 1026,5 hPa 0,0 l/m 0 min 0 min 62 W/m 12,6 km/h (3 Bft)
11.02.2015 10:02 3,9 C 3,3 C 88 % 1026,5 hPa 0,0 l/m 0 min 0 min 61 W/m 14,6 km/h (3 Bft)
11.02.2015 10:04 3,9 C 3,3 C 88 % 1026,5 hPa 0,0 l/m 0 min 0 min 62 W/m 14,6 km/h (3 Bft)
11.02.2015 10:06 3,9 C 3,3 C 88 % 1026,5 hPa 0,0 l/m 0 min 0 min 63 W/m 14,6 km/h (3 Bft)
11.02.2015 10:08 3,9 C 3,3 C 88 % 1026,5 hPa 0,0 l/m 0 min 0 min 65 W/m 12,6 km/h (3 Bft)
11.02.2015 10:10 3,9 C 3,3 C 88 % 1026,5 hPa 0,0 l/m 0 min 0 min 70 W/m 12,6 km/h (3 Bft)
11.02.2015 10:12 3,9 C 3,3 C 88 % 1026,5 hPa 0,0 l/m 0 min 0 min 69 W/m 10,5 km/h (2 Bft)
11.02.2015 10:14 4,0 C 3,3 C 88 % 1026,5 hPa 0,0 l/m 0 min 0 min 71 W/m 16,7 km/h (3 Bft)
11.02.2015 10:16 4,0 C 3,3 C 88 % 1026,4 hPa 0,0 l/m 0 min 0 min 74 W/m 14,6 km/h (3 Bft)
11.02.2015 10:18 4,0 C 3,3 C 88 % 1026,5 hPa 0,0 l/m 0 min 0 min 76 W/m 18,8 km/h (3 Bft)
11.02.2015 10:20 4,0 C 3,3 C 88 % 1026,5 hPa 0,0 l/m 0 min 0 min 77 W/m 29,3 km/h (5 Bft)
11.02.2015 10:22 4,1 C 3,3 C 88 % 1026,5 hPa 0,0 l/m 0 min 0 min 76 W/m 12,6 km/h (3 Bft)
11.02.2015 10:24 4,1 C 3,3 C 88 % 1026,4 hPa 0,0 l/m 0 min 0 min 77 W/m 18,8 km/h (3 Bft)
11.02.2015 10:26 4,1 C 3,3 C 88 % 1026,4 hPa 0,0 l/m 0 min 0 min 78 W/m 20,9 km/h (4 Bft)
11.02.2015 10:28 4,1 C 3,3 C 88 % 1026,4 hPa 0,0 l/m 0 min 0 min 77 W/m 25,1 km/h (4 Bft)
11.02.2015 10:30 4,1 C 3,3 C 88 % 1026,4 hPa 0,0 l/m 0 min 0 min 78 W/m 16,7 km/h (3 Bft)
11.02.2015 10:32 4,1 C 3,3 C 88 % 1026,4 hPa 0,0 l/m 0 min 0 min 78 W/m 14,6 km/h (3 Bft)
11.02.2015 10:34 4,1 C 3,3 C 87 % 1026,4 hPa 0,0 l/m 0 min 0 min 79 W/m 20,9 km/h (4 Bft)
11.02.2015 10:36 4,1 C 3,9 C 87 % 1026,4 hPa 0,0 l/m 0 min 0 min 81 W/m 14,6 km/h (3 Bft)
11.02.2015 10:38 4,1 C 3,9 C 87 % 1026,3 hPa 0,0 l/m 0 min 0 min 81 W/m 10,5 km/h (2 Bft)
11.02.2015 10:40 4,1 C 3,9 C 87 % 1026,3 hPa 0,0 l/m 0 min 0 min 79 W/m 18,8 km/h (3 Bft)
11.02.2015 10:42 4,2 C 3,9 C 87 % 1026,4 hPa 0,0 l/m 0 min 0 min 78 W/m 10,5 km/h (2 Bft)
11.02.2015 10:44 4,2 C 3,9 C 87 % 1026,3 hPa 0,0 l/m 0 min 0 min 79 W/m 12,6 km/h (3 Bft)
11.02.2015 10:46 4,2 C 3,9 C 87 % 1026,3 hPa 0,0 l/m 0 min 0 min 80 W/m 10,5 km/h (2 Bft)
11.02.2015 10:48 4,2 C 3,9 C 88 % 1026,3 hPa 0,0 l/m 0 min 0 min 83 W/m 10,5 km/h (2 Bft)
11.02.2015 10:50 4,2 C 3,9 C 88 % 1026,3 hPa 0,0 l/m 0 min 0 min 87 W/m 14,6 km/h (3 Bft)
11.02.2015 10:52 4,2 C 3,9 C 88 % 1026,3 hPa 0,0 l/m 0 min 0 min 96 W/m 16,7 km/h (3 Bft)
11.02.2015 10:54 4,2 C 3,9 C 88 % 1026,3 hPa 0,0 l/m 0 min 0 min 92 W/m 18,8 km/h (3 Bft)
11.02.2015 10:56 4,2 C 3,9 C 88 % 1026,3 hPa 0,0 l/m 0 min 0 min 89 W/m 16,7 km/h (3 Bft)
11.02.2015 10:58 4,2 C 3,9 C 88 % 1026,3 hPa 0,0 l/m 0 min 0 min 85 W/m 14,6 km/h (3 Bft)
11.02.2015 11:00 4,3 C 3,9 C 88 % 1026,3 hPa 0,0 l/m 0 min 0 min 87 W/m 14,6 km/h (3 Bft)
11.02.2015 11:02 4,3 C 3,9 C 88 % 1026,3 hPa 0,0 l/m 0 min 0 min 90 W/m 8,4 km/h (2 Bft)
11.02.2015 11:04 4,3 C 3,9 C 88 % 1026,3 hPa 0,0 l/m 0 min 0 min 91 W/m 14,6 km/h (3 Bft)
11.02.2015 11:06 4,3 C 3,9 C 88 % 1026,2 hPa 0,0 l/m 0 min 0 min 97 W/m 20,9 km/h (4 Bft)
11.02.2015 11:08 4,3 C 3,9 C 88 % 1026,3 hPa 0,0 l/m 0 min 0 min 97 W/m 20,9 km/h (4 Bft)
11.02.2015 11:10 4,3 C 3,9 C 87 % 1026,3 hPa 0,0 l/m 0 min 0 min 94 W/m 23,0 km/h (4 Bft)
11.02.2015 11:12 4,3 C 3,9 C 87 % 1026,3 hPa 0,0 l/m 0 min 0 min 100 W/m 14,6 km/h (3 Bft)
11.02.2015 11:14 4,3 C 3,9 C 87 % 1026,3 hPa 0,0 l/m 0 min 0 min 113 W/m 16,7 km/h (3 Bft)
11.02.2015 11:16 4,4 C 3,9 C 87 % 1026,3 hPa 0,0 l/m 0 min 0 min 107 W/m 18,8 km/h (3 Bft)
11.02.2015 11:18 4,4 C 3,9 C 87 % 1026,3 hPa 0,0 l/m 0 min 0 min 106 W/m 20,9 km/h (4 Bft)
11.02.2015 11:20 4,4 C 3,9 C 87 % 1026,3 hPa 0,0 l/m 0 min 0 min 112 W/m 20,9 km/h (4 Bft)
11.02.2015 11:22 4,4 C 3,9 C 87 % 1026,3 hPa 0,0 l/m 0 min 0 min 107 W/m 16,7 km/h (3 Bft)
11.02.2015 11:24 4,4 C 3,9 C 87 % 1026,4 hPa 0,0 l/m 0 min 0 min 106 W/m 20,9 km/h (4 Bft)
11.02.2015 11:26 4,4 C 3,9 C 87 % 1026,3 hPa 0,0 l/m 0 min 0 min 110 W/m 18,8 km/h (3 Bft)
11.02.2015 11:28 4,4 C 3,9 C 87 % 1026,3 hPa 0,0 l/m 0 min 0 min 113 W/m 14,6 km/h (3 Bft)
11.02.2015 11:30 4,4 C 4,4 C 87 % 1026,2 hPa 0,0 l/m 0 min 0 min 114 W/m 10,5 km/h (2 Bft)
11.02.2015 11:32 4,4 C 4,4 C 87 % 1026,2 hPa 0,0 l/m 0 min 0 min 115 W/m 12,6 km/h (3 Bft)
11.02.2015 11:34 4,4 C 4,4 C 87 % 1026,2 hPa 0,0 l/m 0 min 0 min 114 W/m 8,4 km/h (2 Bft)
11.02.2015 11:36 4,5 C 4,4 C 87 % 1026,2 hPa 0,0 l/m 0 min 0 min 113 W/m 14,6 km/h (3 Bft)
11.02.2015 11:38 4,5 C 4,4 C 87 % 1026,2 hPa 0,0 l/m 0 min 0 min 109 W/m 12,6 km/h (3 Bft)
11.02.2015 11:40 4,5 C 4,4 C 87 % 1026,2 hPa 0,0 l/m 0 min 0 min 107 W/m 18,8 km/h (3 Bft)
11.02.2015 11:42 4,5 C 4,4 C 87 % 1026,1 hPa 0,0 l/m 0 min 0 min 105 W/m 10,5 km/h (2 Bft)
11.02.2015 11:44 4,5 C 4,4 C 87 % 1026,1 hPa 0,0 l/m 0 min 0 min 107 W/m 10,5 km/h (2 Bft)
11.02.2015 11:46 4,6 C 4,4 C 87 % 1026,1 hPa 0,0 l/m 0 min 0 min 105 W/m 16,7 km/h (3 Bft)
11.02.2015 11:48 4,6 C 4,4 C 87 % 1026,1 hPa 0,0 l/m 0 min 0 min 107 W/m 16,7 km/h (3 Bft)
11.02.2015 11:50 4,6 C 4,4 C 87 % 1026,1 hPa 0,0 l/m 0 min 0 min 110 W/m 14,6 km/h (3 Bft)
11.02.2015 11:52 4,6 C 4,4 C 87 % 1026,1 hPa 0,0 l/m 0 min 0 min 112 W/m 14,6 km/h (3 Bft)
11.02.2015 11:54 4,6 C 4,4 C 87 % 1026,1 hPa 0,0 l/m 0 min 0 min 113 W/m 14,6 km/h (3 Bft)
11.02.2015 11:56 4,6 C 4,4 C 87 % 1026,1 hPa 0,0 l/m 0 min 0 min 112 W/m 14,6 km/h (3 Bft)
11.02.2015 11:58 4,6 C 4,4 C 87 % 1026,0 hPa 0,0 l/m 0 min 0 min 112 W/m 8,4 km/h (2 Bft)
11.02.2015 12:00 4,7 C 4,4 C 86 % 1026,0 hPa 0,0 l/m 0 min 0 min 113 W/m 18,8 km/h (3 Bft)
11.02.2015 12:02 4,7 C 4,4 C 86 % 1026,0 hPa 0,0 l/m 0 min 0 min 114 W/m 14,6 km/h (3 Bft)
11.02.2015 12:05 4,6 C 4,4 C 86 % 1025,9 hPa 0,0 l/m 0 min 0 min 113 W/m 10,5 km/h (2 Bft)
11.02.2015 12:06 4,7 C 4,4 C 86 % 1025,9 hPa 0,0 l/m 0 min 0 min 113 W/m 14,6 km/h (3 Bft)
11.02.2015 12:08 4,7 C 4,4 C 86 % 1025,9 hPa 0,0 l/m 0 min 0 min 116 W/m 20,9 km/h (4 Bft)
11.02.2015 12:10 4,7 C 4,4 C 86 % 1025,9 hPa 0,0 l/m 0 min 0 min 121 W/m 14,6 km/h (3 Bft)
11.02.2015 12:12 4,7 C 4,4 C 86 % 1025,9 hPa 0,0 l/m 0 min 0 min 123 W/m 25,1 km/h (4 Bft)
11.02.2015 12:14 4,7 C 4,4 C 86 % 1025,9 hPa 0,0 l/m 0 min 0 min 124 W/m 18,8 km/h (3 Bft)
11.02.2015 12:16 4,7 C 4,4 C 86 % 1025,8 hPa 0,0 l/m 0 min 0 min 127 W/m 16,7 km/h (3 Bft)
11.02.2015 12:18 4,7 C 4,4 C 86 % 1025,8 hPa 0,0 l/m 0 min 0 min 128 W/m 18,8 km/h (3 Bft)
11.02.2015 12:20 4,7 C 4,4 C 86 % 1025,8 hPa 0,0 l/m 0 min 0 min 129 W/m 16,7 km/h (3 Bft)
11.02.2015 12:22 4,7 C 4,4 C 86 % 1025,8 hPa 0,0 l/m 0 min 0 min 131 W/m 23,0 km/h (4 Bft)
11.02.2015 12:24 4,7 C 4,4 C 86 % 1025,8 hPa 0,0 l/m 0 min 0 min 135 W/m 20,9 km/h (4 Bft)
11.02.2015 12:26 4,7 C 4,4 C 86 % 1025,8 hPa 0,0 l/m 0 min 0 min 136 W/m 20,9 km/h (4 Bft)
11.02.2015 12:28 4,7 C 4,4 C 86 % 1025,8 hPa 0,0 l/m 0 min 0 min 133 W/m 14,6 km/h (3 Bft)
11.02.2015 12:30 4,7 C 4,4 C 86 % 1025,7 hPa 0,0 l/m 0 min 0 min 130 W/m 14,6 km/h (3 Bft)
11.02.2015 12:32 4,7 C 4,4 C 86 % 1025,7 hPa 0,0 l/m 0 min 0 min 133 W/m 12,6 km/h (3 Bft)
11.02.2015 12:34 4,7 C 4,4 C 86 % 1025,6 hPa 0,0 l/m 0 min 0 min 131 W/m 16,7 km/h (3 Bft)
11.02.2015 12:36 4,7 C 4,4 C 86 % 1025,6 hPa 0,0 l/m 0 min 0 min 129 W/m 27,2 km/h (4 Bft)
11.02.2015 12:38 4,7 C 4,4 C 86 % 1025,6 hPa 0,0 l/m 0 min 0 min 127 W/m 20,9 km/h (4 Bft)
11.02.2015 12:40 4,7 C 4,4 C 86 % 1025,6 hPa 0,0 l/m 0 min 0 min 127 W/m 16,7 km/h (3 Bft)
11.02.2015 12:42 4,7 C 4,4 C 86 % 1025,5 hPa 0,0 l/m 0 min 0 min 130 W/m 16,7 km/h (3 Bft)
11.02.2015 12:44 4,7 C 4,4 C 86 % 1025,5 hPa 0,0 l/m 0 min 0 min 134 W/m 12,6 km/h (3 Bft)
11.02.2015 12:46 4,7 C 4,4 C 86 % 1025,4 hPa 0,0 l/m 0 min 0 min 132 W/m 12,6 km/h (3 Bft)
11.02.2015 12:48 4,7 C 4,4 C 86 % 1025,5 hPa 0,0 l/m 0 min 0 min 132 W/m 18,8 km/h (3 Bft)
11.02.2015 12:50 4,7 C 4,4 C 86 % 1025,4 hPa 0,0 l/m 0 min 0 min 135 W/m 18,8 km/h (3 Bft)
11.02.2015 12:52 4,7 C 4,4 C 86 % 1025,4 hPa 0,0 l/m 0 min 0 min 136 W/m 18,8 km/h (3 Bft)
11.02.2015 12:54 4,7 C 4,4 C 86 % 1025,4 hPa 0,0 l/m 0 min 0 min 136 W/m 16,7 km/h (3 Bft)
11.02.2015 12:56 4,7 C 4,4 C 86 % 1025,3 hPa 0,0 l/m 0 min 0 min 141 W/m 14,6 km/h (3 Bft)
11.02.2015 12:58 4,7 C 4,4 C 86 % 1025,4 hPa 0,0 l/m 0 min 0 min 144 W/m 14,6 km/h (3 Bft)
11.02.2015 13:00 4,7 C 4,4 C 86 % 1025,3 hPa 0,0 l/m 0 min 0 min 143 W/m 12,6 km/h (3 Bft)
11.02.2015 13:02 4,7 C 4,4 C 86 % 1025,2 hPa 0,0 l/m 0 min 0 min 142 W/m 23,0 km/h (4 Bft)
11.02.2015 13:04 4,8 C 5,0 C 86 % 1025,2 hPa 0,0 l/m 0 min 0 min 143 W/m 12,6 km/h (3 Bft)
11.02.2015 13:06 4,8 C 5,0 C 86 % 1025,1 hPa 0,0 l/m 0 min 0 min 152 W/m 12,6 km/h (3 Bft)
11.02.2015 13:08 4,8 C 4,4 C 86 % 1025,1 hPa 0,0 l/m 0 min 0 min 157 W/m 16,7 km/h (3 Bft)
11.02.2015 13:10 4,8 C 4,4 C 86 % 1025,1 hPa 0,0 l/m 0 min 0 min 152 W/m 23,0 km/h (4 Bft)
11.02.2015 13:12 4,8 C 5,0 C 86 % 1025,0 hPa 0,0 l/m 0 min 0 min 153 W/m 12,6 km/h (3 Bft)
11.02.2015 13:14 4,8 C 5,0 C 85 % 1025,0 hPa 0,0 l/m 0 min 0 min 153 W/m 12,6 km/h (3 Bft)
11.02.2015 13:16 4,8 C 5,0 C 85 % 1025,1 hPa 0,0 l/m 0 min 0 min 154 W/m 23,0 km/h (4 Bft)
11.02.2015 13:18 4,8 C 5,0 C 85 % 1025,0 hPa 0,0 l/m 0 min 0 min 154 W/m 18,8 km/h (3 Bft)
11.02.2015 13:20 4,8 C 5,0 C 85 % 1024,9 hPa 0,0 l/m 0 min 0 min 155 W/m 14,6 km/h (3 Bft)
11.02.2015 13:22 4,8 C 5,0 C 85 % 1025,0 hPa 0,0 l/m 0 min 0 min 160 W/m 16,7 km/h (3 Bft)
11.02.2015 13:24 4,8 C 5,0 C 85 % 1024,9 hPa 0,0 l/m 0 min 0 min 164 W/m 10,5 km/h (2 Bft)
11.02.2015 13:26 4,8 C 5,0 C 85 % 1024,9 hPa 0,0 l/m 0 min 0 min 161 W/m 10,5 km/h (2 Bft)
11.02.2015 13:28 4,8 C 5,0 C 85 % 1024,8 hPa 0,0 l/m 0 min 0 min 165 W/m 12,6 km/h (3 Bft)
11.02.2015 13:30 4,8 C 5,0 C 86 % 1024,8 hPa 0,0 l/m 0 min 0 min 174 W/m 8,4 km/h (2 Bft)
11.02.2015 13:32 4,9 C 5,0 C 86 % 1024,8 hPa 0,0 l/m 0 min 0 min 173 W/m 20,9 km/h (4 Bft)
11.02.2015 13:34 4,9 C 5,0 C 86 % 1024,8 hPa 0,0 l/m 0 min 0 min 173 W/m 18,8 km/h (3 Bft)
11.02.2015 13:36 4,9 C 5,0 C 86 % 1024,8 hPa 0,0 l/m 0 min 0 min 175 W/m 16,7 km/h (3 Bft)
11.02.2015 13:38 4,9 C 5,0 C 85 % 1024,8 hPa 0,0 l/m 0 min 0 min 186 W/m 14,6 km/h (3 Bft)
11.02.2015 13:40 4,9 C 5,6 C 85 % 1024,8 hPa 0,0 l/m 0 min 0 min 190 W/m 12,6 km/h (3 Bft)
11.02.2015 13:42 5,0 C 5,6 C 85 % 1024,8 hPa 0,0 l/m 0 min 0 min 174 W/m 14,6 km/h (3 Bft)
11.02.2015 13:44 5,0 C 5,6 C 85 % 1024,8 hPa 0,0 l/m 0 min 0 min 170 W/m 16,7 km/h (3 Bft)
11.02.2015 13:46 5,0 C 5,6 C 85 % 1024,7 hPa 0,0 l/m 0 min 0 min 170 W/m 18,8 km/h (3 Bft)
11.02.2015 13:48 5,1 C 5,6 C 85 % 1024,9 hPa 0,0 l/m 0 min 0 min 172 W/m 16,7 km/h (3 Bft)
11.02.2015 13:50 5,1 C 5,0 C 85 % 1024,8 hPa 0,0 l/m 0 min 0 min 168 W/m 27,2 km/h (4 Bft)
11.02.2015 13:52 5,1 C 5,0 C 85 % 1024,7 hPa 0,0 l/m 0 min 0 min 171 W/m 16,7 km/h (3 Bft)
11.02.2015 13:54 5,1 C 5,0 C 85 % 1024,7 hPa 0,0 l/m 0 min 0 min 175 W/m 12,6 km/h (3 Bft)
11.02.2015 13:56 5,1 C 5,0 C 85 % 1024,7 hPa 0,0 l/m 0 min 0 min 183 W/m 20,9 km/h (4 Bft)
11.02.2015 13:58 5,1 C 5,0 C 85 % 1024,6 hPa 0,0 l/m 0 min 0 min 188 W/m 14,6 km/h (3 Bft)
11.02.2015 14:00 5,1 C 5,6 C 85 % 1024,5 hPa 0,0 l/m 0 min 0 min 187 W/m 10,5 km/h (2 Bft)
11.02.2015 14:02 5,2 C 5,6 C 85 % 1024,5 hPa 0,0 l/m 2 min 0 min 213 W/m 16,7 km/h (3 Bft)
11.02.2015 14:04 5,2 C 5,6 C 85 % 1024,5 hPa 0,0 l/m 2 min 0 min 200 W/m 12,6 km/h (3 Bft)
11.02.2015 14:06 5,2 C 5,6 C 85 % 1024,4 hPa 0,0 l/m 2 min 0 min 198 W/m 16,7 km/h (3 Bft)
11.02.2015 14:08 5,2 C 5,6 C 85 % 1024,4 hPa 0,0 l/m 0 min 0 min 189 W/m 12,6 km/h (3 Bft)
11.02.2015 14:10 5,3 C 5,6 C 84 % 1024,4 hPa 0,0 l/m 2 min 0 min 234 W/m 18,8 km/h (3 Bft)
11.02.2015 14:12 5,3 C 5,6 C 84 % 1024,4 hPa 0,0 l/m 2 min 0 min 200 W/m 18,8 km/h (3 Bft)
11.02.2015 14:14 5,3 C 5,6 C 84 % 1024,3 hPa 0,0 l/m 2 min 0 min 198 W/m 18,8 km/h (3 Bft)
11.02.2015 14:16 5,3 C 5,6 C 84 % 1024,3 hPa 0,0 l/m 2 min 0 min 232 W/m 18,8 km/h (3 Bft)
11.02.2015 14:18 5,4 C 5,6 C 84 % 1024,3 hPa 0,0 l/m 2 min 0 min 187 W/m 23,0 km/h (4 Bft)
11.02.2015 14:20 5,3 C 5,6 C 84 % 1024,2 hPa 0,0 l/m 0 min 0 min 173 W/m 23,0 km/h (4 Bft)
11.02.2015 14:22 5,3 C 5,0 C 83 % 1024,2 hPa 0,0 l/m 2 min 0 min 195 W/m 16,7 km/h (3 Bft)
11.02.2015 14:24 5,3 C 5,0 C 83 % 1024,2 hPa 0,0 l/m 2 min 0 min 198 W/m 16,7 km/h (3 Bft)
11.02.2015 14:26 5,3 C 5,0 C 83 % 1024,2 hPa 0,0 l/m 2 min 0 min 251 W/m 14,6 km/h (3 Bft)
11.02.2015 14:28 5,3 C 5,0 C 83 % 1024,2 hPa 0,0 l/m 0 min 0 min 151 W/m 14,6 km/h (3 Bft)
11.02.2015 14:30 5,3 C 5,0 C 83 % 1024,2 hPa 0,0 l/m 0 min 0 min 126 W/m 14,6 km/h (3 Bft)
11.02.2015 14:32 5,3 C 4,4 C 83 % 1024,2 hPa 0,0 l/m 0 min 0 min 112 W/m 16,7 km/h (3 Bft)
11.02.2015 14:34 5,3 C 4,4 C 83 % 1024,2 hPa 0,0 l/m 0 min 0 min 121 W/m 14,6 km/h (3 Bft)
11.02.2015 14:36 5,3 C 4,4 C 83 % 1024,1 hPa 0,0 l/m 2 min 0 min 208 W/m 14,6 km/h (3 Bft)
11.02.2015 14:38 5,3 C 4,4 C 83 % 1024,2 hPa 0,0 l/m 0 min 0 min 136 W/m 14,6 km/h (3 Bft)
11.02.2015 14:40 5,3 C 4,4 C 83 % 1024,2 hPa 0,0 l/m 2 min 0 min 180 W/m 12,6 km/h (3 Bft)
11.02.2015 14:42 5,3 C 4,4 C 83 % 1024,2 hPa 0,0 l/m 2 min 0 min 281 W/m 14,6 km/h (3 Bft)
11.02.2015 14:44 5,3 C 4,4 C 83 % 1024,1 hPa 0,0 l/m 0 min 0 min 127 W/m 10,5 km/h (2 Bft)
11.02.2015 14:46 5,3 C 4,4 C 83 % 1024,2 hPa 0,0 l/m 2 min 0 min 220 W/m 12,6 km/h (3 Bft)
11.02.2015 14:48 5,3 C 4,4 C 83 % 1024,2 hPa 0,0 l/m 0 min 0 min 117 W/m 10,5 km/h (2 Bft)
11.02.2015 14:50 5,3 C 4,4 C 83 % 1024,1 hPa 0,0 l/m 0 min 0 min 114 W/m 16,7 km/h (3 Bft)
11.02.2015 14:52 5,3 C 4,4 C 83 % 1024,1 hPa 0,0 l/m 0 min 0 min 99 W/m 14,6 km/h (3 Bft)
11.02.2015 14:54 5,3 C 4,4 C 83 % 1024,1 hPa 0,0 l/m 2 min 0 min 263 W/m 12,6 km/h (3 Bft)
11.02.2015 14:56 5,3 C 4,4 C 83 % 1024,1 hPa 0,0 l/m 2 min 0 min 276 W/m 10,5 km/h (2 Bft)
11.02.2015 14:58 5,4 C 4,4 C 83 % 1023,9 hPa 0,0 l/m 2 min 0 min 277 W/m 14,6 km/h (3 Bft)
11.02.2015 15:00 5,5 C 4,4 C 83 % 1023,9 hPa 0,0 l/m 2 min 0 min 271 W/m 12,6 km/h (3 Bft)
11.02.2015 15:02 5,6 C 5,0 C 84 % 1024,0 hPa 0,0 l/m 2 min 0 min 267 W/m 16,7 km/h (3 Bft)
11.02.2015 15:04 5,6 C 5,0 C 83 % 1023,9 hPa 0,0 l/m 2 min 0 min 270 W/m 16,7 km/h (3 Bft)
11.02.2015 15:06 5,7 C 5,0 C 83 % 1023,8 hPa 0,0 l/m 2 min 0 min 272 W/m 14,6 km/h (3 Bft)
11.02.2015 15:08 5,8 C 5,0 C 83 % 1023,8 hPa 0,0 l/m 2 min 0 min 251 W/m 16,7 km/h (3 Bft)
11.02.2015 15:10 5,9 C 5,0 C 83 % 1023,8 hPa 0,0 l/m 2 min 0 min 243 W/m 14,6 km/h (3 Bft)
11.02.2015 15:12 6,0 C 5,0 C 83 % 1023,8 hPa 0,0 l/m 2 min 0 min 178 W/m 14,6 km/h (3 Bft)
11.02.2015 15:14 6,1 C 5,0 C 83 % 1023,8 hPa 0,0 l/m 2 min 0 min 202 W/m 10,5 km/h (2 Bft)
11.02.2015 15:16 6,1 C 5,0 C 82 % 1023,8 hPa 0,0 l/m 2 min 0 min 244 W/m 12,6 km/h (3 Bft)
11.02.2015 15:18 6,2 C 5,0 C 82 % 1023,8 hPa 0,0 l/m 2 min 0 min 242 W/m 16,7 km/h (3 Bft)
11.02.2015 15:20 6,3 C 5,0 C 82 % 1023,8 hPa 0,0 l/m 2 min 0 min 236 W/m 14,6 km/h (3 Bft)
11.02.2015 15:22 6,4 C 5,0 C 82 % 1023,7 hPa 0,0 l/m 2 min 0 min 231 W/m 16,7 km/h (3 Bft)
11.02.2015 15:24 6,4 C 5,0 C 81 % 1023,7 hPa 0,0 l/m 2 min 0 min 229 W/m 16,7 km/h (3 Bft)
11.02.2015 15:26 6,5 C 5,0 C 81 % 1023,7 hPa 0,0 l/m 2 min 0 min 223 W/m 10,5 km/h (2 Bft)
11.02.2015 15:28 6,6 C 5,0 C 81 % 1023,7 hPa 0,0 l/m 2 min 0 min 218 W/m 14,6 km/h (3 Bft)
11.02.2015 15:30 6,7 C 5,0 C 81 % 1023,7 hPa 0,0 l/m 2 min 0 min 215 W/m 8,4 km/h (2 Bft)
11.02.2015 15:32 6,7 C 5,0 C 81 % 1023,7 hPa 0,0 l/m 2 min 0 min 206 W/m 16,7 km/h (3 Bft)
11.02.2015 15:34 6,8 C 5,0 C 80 % 1023,7 hPa 0,0 l/m 2 min 0 min 195 W/m 20,9 km/h (4 Bft)
11.02.2015 15:36 6,8 C 5,0 C 80 % 1023,6 hPa 0,0 l/m 2 min 0 min 196 W/m 14,6 km/h (3 Bft)
11.02.2015 15:38 6,8 C 5,0 C 80 % 1023,6 hPa 0,0 l/m 2 min 0 min 193 W/m 10,5 km/h (2 Bft)
11.02.2015 15:40 6,9 C 5,0 C 79 % 1023,6 hPa 0,0 l/m 2 min 0 min 186 W/m 12,6 km/h (3 Bft)
11.02.2015 15:42 6,9 C 5,0 C 79 % 1023,6 hPa 0,0 l/m 2 min 0 min 181 W/m 12,6 km/h (3 Bft)
11.02.2015 15:44 6,9 C 5,0 C 79 % 1023,5 hPa 0,0 l/m 2 min 0 min 171 W/m 18,8 km/h (3 Bft)
11.02.2015 15:46 6,9 C 5,0 C 78 % 1023,5 hPa 0,0 l/m 2 min 0 min 169 W/m 20,9 km/h (4 Bft)
11.02.2015 15:48 6,9 C 5,0 C 78 % 1023,5 hPa 0,0 l/m 2 min 0 min 170 W/m 16,7 km/h (3 Bft)
11.02.2015 15:50 6,9 C 5,0 C 78 % 1023,5 hPa 0,0 l/m 2 min 0 min 159 W/m 10,5 km/h (2 Bft)
11.02.2015 15:52 6,9 C 4,4 C 78 % 1023,4 hPa 0,0 l/m 2 min 0 min 149 W/m 10,5 km/h (2 Bft)
11.02.2015 15:54 6,9 C 4,4 C 78 % 1023,3 hPa 0,0 l/m 2 min 0 min 146 W/m 14,6 km/h (3 Bft)
11.02.2015 15:56 6,9 C 4,4 C 78 % 1023,3 hPa 0,0 l/m 2 min 0 min 147 W/m 14,6 km/h (3 Bft)
11.02.2015 15:58 6,9 C 4,4 C 78 % 1023,3 hPa 0,0 l/m 2 min 0 min 143 W/m 12,6 km/h (3 Bft)
11.02.2015 16:00 6,9 C 4,4 C 78 % 1023,3 hPa 0,0 l/m 2 min 0 min 140 W/m 14,6 km/h (3 Bft)
11.02.2015 16:02 6,8 C 4,4 C 78 % 1023,3 hPa 0,0 l/m 2 min 0 min 134 W/m 6,3 km/h (2 Bft)
11.02.2015 16:04 6,8 C 4,4 C 78 % 1023,2 hPa 0,0 l/m 2 min 0 min 132 W/m 18,8 km/h (3 Bft)
11.02.2015 16:06 6,8 C 4,4 C 78 % 1023,2 hPa 0,0 l/m 2 min 0 min 128 W/m 16,7 km/h (3 Bft)
11.02.2015 16:08 6,8 C 4,4 C 78 % 1023,2 hPa 0,0 l/m 2 min 0 min 126 W/m 14,6 km/h (3 Bft)
11.02.2015 16:10 6,7 C 4,4 C 78 % 1023,2 hPa 0,0 l/m 2 min 0 min 119 W/m 18,8 km/h (3 Bft)
11.02.2015 16:12 6,7 C 4,4 C 78 % 1023,1 hPa 0,0 l/m 2 min 0 min 111 W/m 16,7 km/h (3 Bft)
11.02.2015 16:14 6,6 C 4,4 C 78 % 1023,2 hPa 0,0 l/m 2 min 0 min 108 W/m 18,8 km/h (3 Bft)
11.02.2015 16:16 6,5 C 4,4 C 78 % 1023,1 hPa 0,0 l/m 2 min 0 min 105 W/m 16,7 km/h (3 Bft)
11.02.2015 16:18 6,4 C 4,4 C 78 % 1023,2 hPa 0,0 l/m 2 min 0 min 100 W/m 14,6 km/h (3 Bft)
11.02.2015 16:20 6,4 C 4,4 C 78 % 1023,2 hPa 0,0 l/m 2 min 0 min 95 W/m 16,7 km/h (3 Bft)
11.02.2015 16:22 6,4 C 3,9 C 78 % 1023,1 hPa 0,0 l/m 2 min 0 min 92 W/m 16,7 km/h (3 Bft)
11.02.2015 16:24 6,3 C 3,9 C 78 % 1023,1 hPa 0,0 l/m 2 min 0 min 88 W/m 14,6 km/h (3 Bft)
11.02.2015 16:26 6,3 C 3,9 C 78 % 1023,1 hPa 0,0 l/m 2 min 0 min 84 W/m 20,9 km/h (4 Bft)
11.02.2015 16:28 6,2 C 3,9 C 79 % 1023,1 hPa 0,0 l/m 2 min 0 min 81 W/m 16,7 km/h (3 Bft)
11.02.2015 16:30 6,2 C 3,9 C 79 % 1023,1 hPa 0,0 l/m 0 min 0 min 76 W/m 18,8 km/h (3 Bft)
11.02.2015 16:32 6,1 C 3,9 C 79 % 1023,2 hPa 0,0 l/m 0 min 0 min 73 W/m 23,0 km/h (4 Bft)
11.02.2015 16:34 6,0 C 3,9 C 79 % 1023,1 hPa 0,0 l/m 0 min 0 min 70 W/m 18,8 km/h (3 Bft)
11.02.2015 16:36 5,9 C 3,9 C 79 % 1023,1 hPa 0,0 l/m 0 min 0 min 65 W/m 14,6 km/h (3 Bft)
11.02.2015 16:38 5,9 C 3,9 C 79 % 1023,1 hPa 0,0 l/m 0 min 0 min 63 W/m 14,6 km/h (3 Bft)
11.02.2015 16:40 5,9 C 3,9 C 79 % 1023,1 hPa 0,0 l/m 0 min 0 min 59 W/m 10,5 km/h (2 Bft)
11.02.2015 16:42 5,8 C 3,9 C 80 % 1023,1 hPa 0,0 l/m 0 min 0 min 55 W/m 14,6 km/h (3 Bft)
11.02.2015 16:44 5,8 C 3,9 C 80 % 1023,1 hPa 0,0 l/m 0 min 0 min 51 W/m 14,6 km/h (3 Bft)
11.02.2015 16:46 5,7 C 3,3 C 80 % 1023,0 hPa 0,0 l/m 0 min 0 min 47 W/m 8,4 km/h (2 Bft)
11.02.2015 16:48 5,7 C 3,3 C 80 % 1023,0 hPa 0,0 l/m 0 min 0 min 44 W/m 18,8 km/h (3 Bft)
11.02.2015 16:50 5,7 C 3,3 C 80 % 1023,0 hPa 0,0 l/m 0 min 0 min 40 W/m 20,9 km/h (4 Bft)
11.02.2015 16:52 5,6 C 3,3 C 80 % 1023,0 hPa 0,0 l/m 0 min 0 min 39 W/m 16,7 km/h (3 Bft)
11.02.2015 16:54 5,6 C 3,3 C 80 % 1023,0 hPa 0,0 l/m 0 min 0 min 37 W/m 14,6 km/h (3 Bft)
11.02.2015 16:56 5,6 C 3,3 C 80 % 1023,0 hPa 0,0 l/m 0 min 0 min 33 W/m 16,7 km/h (3 Bft)
11.02.2015 16:58 5,5 C 3,3 C 80 % 1023,1 hPa 0,0 l/m 0 min 0 min 33 W/m 16,7 km/h (3 Bft)
11.02.2015 17:00 5,4 C 3,3 C 80 % 1023,0 hPa 0,0 l/m 0 min 0 min 32 W/m 14,6 km/h (3 Bft)
11.02.2015 17:02 5,4 C 3,3 C 81 % 1023,0 hPa 0,0 l/m 0 min 0 min 31 W/m 4,2 km/h (1 Bft)
11.02.2015 17:04 5,4 C 3,3 C 81 % 1023,0 hPa 0,0 l/m 0 min 0 min 30 W/m 14,6 km/h (3 Bft)
11.02.2015 17:06 5,3 C 3,3 C 81 % 1023,0 hPa 0,0 l/m 0 min 0 min 30 W/m 12,6 km/h (3 Bft)
11.02.2015 17:08 5,3 C 3,3 C 81 % 1023,0 hPa 0,0 l/m 0 min 0 min 28 W/m 16,7 km/h (3 Bft)
11.02.2015 17:10 5,3 C 3,3 C 81 % 1023,0 hPa 0,0 l/m 0 min 0 min 28 W/m 12,6 km/h (3 Bft)
11.02.2015 17:15 5,2 C 3,3 C 82 % 1022,9 hPa 0,0 l/m 0 min 0 min 24 W/m 14,6 km/h (3 Bft)
11.02.2015 17:20 5,1 C 2,8 C 82 % 1022,9 hPa 0,0 l/m 0 min 0 min 20 W/m 14,6 km/h (3 Bft)
11.02.2015 17:25 5,0 C 2,8 C 82 % 1022,9 hPa 0,0 l/m 2 min 0 min 18 W/m 14,6 km/h (3 Bft)
11.02.2015 17:30 4,9 C 2,8 C 82 % 1022,9 hPa 0,0 l/m 2 min 0 min 15 W/m 14,6 km/h (3 Bft)
11.02.2015 17:35 4,8 C 2,8 C 82 % 1022,9 hPa 0,0 l/m 0 min 0 min 12 W/m 12,6 km/h (3 Bft)
11.02.2015 17:40 4,8 C 2,2 C 82 % 1022,8 hPa 0,0 l/m 0 min 0 min 9 W/m 12,6 km/h (3 Bft)
11.02.2015 17:45 4,7 C 2,2 C 83 % 1022,8 hPa 0,0 l/m 0 min 0 min 7 W/m 10,5 km/h (2 Bft)
11.02.2015 17:50 4,6 C 1,7 C 83 % 1022,8 hPa 0,0 l/m 0 min 0 min 5 W/m 8,4 km/h (2 Bft)
11.02.2015 17:55 4,5 C 1,7 C 83 % 1022,8 hPa 0,0 l/m 0 min 0 min 1 W/m 10,5 km/h (2 Bft)
11.02.2015 18:00 4,4 C 1,7 C 83 % 1022,8 hPa 0,0 l/m 0 min 0 min 0 W/m 8,4 km/h (2 Bft)
11.02.2015 18:05 4,3 C 1,1 C 83 % 1022,9 hPa 0,0 l/m 0 min 0 min 0 W/m 6,3 km/h (2 Bft)
11.02.2015 18:10 4,2 C 1,1 C 83 % 1022,9 hPa 0,0 l/m 0 min 0 min 0 W/m 8,4 km/h (2 Bft)
11.02.2015 18:15 4,2 C 1,1 C 84 % 1022,9 hPa 0,0 l/m 0 min 0 min 0 W/m 6,3 km/h (2 Bft)
11.02.2015 18:20 4,1 C 1,1 C 84 % 1022,9 hPa 0,0 l/m 0 min 0 min 0 W/m 10,5 km/h (2 Bft)
11.02.2015 18:25 3,9 C 1,1 C 84 % 1022,9 hPa 0,0 l/m 0 min 0 min 0 W/m 8,4 km/h (2 Bft)
11.02.2015 18:30 3,8 C 0,6 C 84 % 1022,9 hPa 0,0 l/m 0 min 0 min 0 W/m 8,4 km/h (2 Bft)
11.02.2015 18:35 3,7 C 0,6 C 85 % 1022,9 hPa 0,0 l/m 0 min 0 min 0 W/m 6,3 km/h (2 Bft)
11.02.2015 18:42 3,6 C 0,0 C 85 % 1022,9 hPa 0,0 l/m 0 min 0 min 0 W/m 4,2 km/h (1 Bft)
11.02.2015 18:44 3,6 C 0,0 C 85 % 1023,0 hPa 0,0 l/m 0 min 0 min 0 W/m 4,2 km/h (1 Bft)
11.02.2015 18:46 3,5 C 0,0 C 85 % 1023,0 hPa 0,0 l/m 0 min 0 min 0 W/m 6,3 km/h (2 Bft)
11.02.2015 18:48 3,4 C 0,0 C 85 % 1023,0 hPa 0,0 l/m 0 min 0 min 0 W/m 4,2 km/h (1 Bft)
11.02.2015 18:50 3,4 C 0,0 C 85 % 1022,9 hPa 0,0 l/m 0 min 0 min 0 W/m 6,3 km/h (2 Bft)
11.02.2015 18:52 3,4 C 0,0 C 85 % 1023,0 hPa 0,0 l/m 0 min 0 min 0 W/m 4,2 km/h (1 Bft)
11.02.2015 18:54 3,3 C 0,0 C 85 % 1022,9 hPa 0,0 l/m 0 min 0 min 0 W/m 6,3 km/h (2 Bft)
11.02.2015 18:56 3,3 C 0,0 C 85 % 1022,9 hPa 0,0 l/m 0 min 0 min 0 W/m 4,2 km/h (1 Bft)
11.02.2015 18:58 3,2 C 0,0 C 85 % 1022,9 hPa 0,0 l/m 0 min 0 min 0 W/m 4,2 km/h (1 Bft)
11.02.2015 19:04 3,1 C 0,0 C 85 % 1022,9 hPa 0,0 l/m 0 min 0 min 0 W/m 4,2 km/h (1 Bft)
11.02.2015 19:06 3,1 C 0,0 C 85 % 1022,8 hPa 0,0 l/m 0 min 0 min 0 W/m 6,3 km/h (2 Bft)
11.02.2015 19:08 3,0 C 0,0 C 85 % 1022,8 hPa 0,0 l/m 0 min 0 min 0 W/m 6,3 km/h (2 Bft)
11.02.2015 19:10 2,9 C 0,0 C 86 % 1022,9 hPa 0,0 l/m 0 min 0 min 0 W/m 4,2 km/h (1 Bft)
11.02.2015 19:12 2,9 C -0,6 C 86 % 1022,8 hPa 0,0 l/m 0 min 0 min 0 W/m 4,2 km/h (1 Bft)
11.02.2015 19:14 2,9 C -0,6 C 86 % 1022,8 hPa 0,0 l/m 0 min 0 min 0 W/m 4,2 km/h (1 Bft)
11.02.2015 19:16 2,9 C -0,6 C 86 % 1022,8 hPa 0,0 l/m 0 min 0 min 0 W/m 6,3 km/h (2 Bft)
11.02.2015 19:18 2,8 C -0,6 C 86 % 1022,8 hPa 0,0 l/m 0 min 0 min 0 W/m 4,2 km/h (1 Bft)
11.02.2015 19:20 2,8 C -0,6 C 86 % 1022,8 hPa 0,0 l/m 0 min 0 min 0 W/m 2,1 km/h (1 Bft)
11.02.2015 19:22 2,8 C -0,6 C 86 % 1022,8 hPa 0,0 l/m 0 min 0 min 0 W/m 2,1 km/h (1 Bft)
11.02.2015 19:24 2,7 C -0,6 C 86 % 1022,8 hPa 0,0 l/m 0 min 0 min 0 W/m 2,1 km/h (1 Bft)
11.02.2015 19:26 2,7 C -0,6 C 86 % 1022,8 hPa 0,0 l/m 0 min 0 min 0 W/m 6,3 km/h (2 Bft)
11.02.2015 19:28 2,7 C -0,6 C 86 % 1022,7 hPa 0,0 l/m 0 min 0 min 0 W/m 6,3 km/h (2 Bft)
11.02.2015 19:29 2,6 C -0,6 C 86 % 1022,8 hPa 0,0 l/m 0 min 0 min 0 W/m 6,3 km/h (2 Bft)
11.02.2015 19:30 2,6 C -0,6 C 86 % 1022,7 hPa 0,0 l/m 0 min 0 min 0 W/m 6,3 km/h (2 Bft)
11.02.2015 19:31 2,6 C -0,6 C 86 % 1022,8 hPa 0,0 l/m 0 min 0 min 0 W/m 4,2 km/h (1 Bft)
11.02.2015 19:32 2,6 C -0,6 C 86 % 1022,8 hPa 0,0 l/m 0 min 0 min 0 W/m 8,4 km/h (2 Bft)
11.02.2015 19:33 2,5 C -0,6 C 86 % 1022,8 hPa 0,0 l/m 0 min 0 min 0 W/m 6,3 km/h (2 Bft)
11.02.2015 19:34 2,5 C -0,6 C 86 % 1022,8 hPa 0,0 l/m 0 min 0 min 0 W/m 6,3 km/h (2 Bft)
11.02.2015 19:35 2,5 C -0,6 C 86 % 1022,8 hPa 0,0 l/m 0 min 0 min 0 W/m 6,3 km/h (2 Bft)
11.02.2015 19:38 2,4 C -0,6 C 87 % 1022,8 hPa 0,0 l/m 0 min 0 min 0 W/m 10,5 km/h (2 Bft)
11.02.2015 19:40 2,4 C -0,6 C 86 % 1022,8 hPa 0,0 l/m 0 min 0 min 0 W/m 6,3 km/h (2 Bft)
11.02.2015 19:42 2,3 C -0,6 C 87 % 1022,8 hPa 0,0 l/m 0 min 0 min 0 W/m 6,3 km/h (2 Bft)
11.02.2015 19:44 2,3 C -0,6 C 87 % 1022,8 hPa 0,0 l/m 0 min 0 min 0 W/m 6,3 km/h (2 Bft)
11.02.2015 19:46 2,3 C -0,6 C 87 % 1022,8 hPa 0,0 l/m 0 min 0 min 0 W/m 8,4 km/h (2 Bft)
11.02.2015 19:48 2,2 C -0,6 C 87 % 1022,8 hPa 0,0 l/m 0 min 0 min 0 W/m 8,4 km/h (2 Bft)
11.02.2015 19:50 2,2 C -0,6 C 87 % 1022,8 hPa 0,0 l/m 0 min 0 min 0 W/m 8,4 km/h (2 Bft)
11.02.2015 19:52 2,2 C -0,6 C 87 % 1022,7 hPa 0,0 l/m 0 min 0 min 0 W/m 10,5 km/h (2 Bft)
11.02.2015 19:54 2,2 C -0,6 C 87 % 1022,8 hPa 0,0 l/m 0 min 0 min 0 W/m 10,5 km/h (2 Bft)
11.02.2015 19:56 2,1 C -0,6 C 87 % 1022,8 hPa 0,0 l/m 0 min 0 min 0 W/m 10,5 km/h (2 Bft)
11.02.2015 19:58 2,1 C -0,6 C 88 % 1022,7 hPa 0,0 l/m 0 min 0 min 0 W/m 10,5 km/h (2 Bft)
11.02.2015 20:00 2,1 C -0,6 C 88 % 1022,7 hPa 0,0 l/m 0 min 0 min 0 W/m 12,6 km/h (3 Bft)
11.02.2015 20:02 2,1 C 0,0 C 88 % 1022,7 hPa 0,0 l/m 0 min 0 min 0 W/m 10,5 km/h (2 Bft)
11.02.2015 20:04 2,1 C 0,0 C 88 % 1022,7 hPa 0,0 l/m 0 min 0 min 0 W/m 12,6 km/h (3 Bft)
11.02.2015 20:06 2,1 C 0,0 C 88 % 1022,7 hPa 0,0 l/m 0 min 0 min 0 W/m 10,5 km/h (2 Bft)
11.02.2015 20:08 2,1 C 0,0 C 89 % 1022,7 hPa 0,0 l/m 0 min 0 min 0 W/m 10,5 km/h (2 Bft)
11.02.2015 20:10 2,0 C 0,0 C 89 % 1022,7 hPa 0,0 l/m 0 min 0 min 0 W/m 14,6 km/h (3 Bft)
11.02.2015 20:12 2,0 C 0,0 C 89 % 1022,7 hPa 0,0 l/m 0 min 0 min 0 W/m 10,5 km/h (2 Bft)
11.02.2015 20:14 2,0 C 0,0 C 89 % 1022,7 hPa 0,0 l/m 0 min 0 min 0 W/m 12,6 km/h (3 Bft)
11.02.2015 20:16 2,0 C 0,0 C 89 % 1022,6 hPa 0,0 l/m 0 min 0 min 0 W/m 14,6 km/h (3 Bft)
11.02.2015 20:18 2,0 C 0,0 C 89 % 1022,7 hPa 0,0 l/m 0 min 0 min 0 W/m 10,5 km/h (2 Bft)
11.02.2015 20:20 1,9 C 0,0 C 89 % 1022,6 hPa 0,0 l/m 0 min 0 min 0 W/m 10,5 km/h (2 Bft)
11.02.2015 20:22 2,0 C 0,0 C 89 % 1022,5 hPa 0,0 l/m 0 min 0 min 0 W/m 14,6 km/h (3 Bft)
11.02.2015 20:24 1,9 C 0,0 C 89 % 1022,6 hPa 0,0 l/m 0 min 0 min 0 W/m 12,6 km/h (3 Bft)
11.02.2015 20:26 1,9 C 0,0 C 90 % 1022,6 hPa 0,0 l/m 0 min 0 min 0 W/m 14,6 km/h (3 Bft)
11.02.2015 20:28 1,9 C 0,0 C 90 % 1022,6 hPa 0,0 l/m 0 min 0 min 0 W/m 12,6 km/h (3 Bft)
11.02.2015 20:30 1,9 C 0,0 C 90 % 1022,6 hPa 0,0 l/m 0 min 0 min 0 W/m 14,6 km/h (3 Bft)
11.02.2015 20:32 1,9 C 0,0 C 90 % 1022,5 hPa 0,0 l/m 0 min 0 min 0 W/m 16,7 km/h (3 Bft)
11.02.2015 20:34 1,9 C 0,6 C 90 % 1022,5 hPa 0,0 l/m 0 min 0 min 0 W/m 18,8 km/h (3 Bft)
11.02.2015 20:36 1,9 C 0,6 C 90 % 1022,5 hPa 0,0 l/m 0 min 0 min 0 W/m 16,7 km/h (3 Bft)
11.02.2015 20:38 2,0 C 0,6 C 90 % 1022,5 hPa 0,0 l/m 0 min 0 min 0 W/m 12,6 km/h (3 Bft)
11.02.2015 20:40 2,0 C 0,6 C 90 % 1022,5 hPa 0,0 l/m 0 min 0 min 0 W/m 14,6 km/h (3 Bft)
11.02.2015 20:42 2,0 C 0,6 C 90 % 1022,4 hPa 0,0 l/m 0 min 0 min 0 W/m 14,6 km/h (3 Bft)
11.02.2015 20:44 2,0 C 0,6 C 90 % 1022,5 hPa 0,0 l/m 0 min 0 min 0 W/m 12,6 km/h (3 Bft)
11.02.2015 20:46 2,0 C 0,0 C 90 % 1022,5 hPa 0,0 l/m 0 min 0 min 0 W/m 14,6 km/h (3 Bft)
11.02.2015 20:48 1,9 C 0,0 C 90 % 1022,5 hPa 0,0 l/m 0 min 0 min 0 W/m 10,5 km/h (2 Bft)
11.02.2015 20:50 1,9 C 0,0 C 90 % 1022,5 hPa 0,0 l/m 0 min 0 min 0 W/m 14,6 km/h (3 Bft)
11.02.2015 20:52 1,9 C 0,0 C 90 % 1022,4 hPa 0,0 l/m 0 min 0 min 0 W/m 12,6 km/h (3 Bft)
11.02.2015 20:54 1,9 C 0,0 C 90 % 1022,4 hPa 0,0 l/m 0 min 0 min 0 W/m 14,6 km/h (3 Bft)
11.02.2015 20:56 1,9 C 0,0 C 90 % 1022,4 hPa 0,0 l/m 0 min 0 min 0 W/m 16,7 km/h (3 Bft)
11.02.2015 20:58 1,9 C 0,0 C 90 % 1022,4 hPa 0,0 l/m 0 min 0 min 0 W/m 16,7 km/h (3 Bft)
11.02.2015 21:00 1,9 C 0,0 C 90 % 1022,4 hPa 0,0 l/m 0 min 0 min 0 W/m 14,6 km/h (3 Bft)
11.02.2015 21:02 1,9 C 0,0 C 91 % 1022,4 hPa 0,0 l/m 0 min 0 min 0 W/m 10,5 km/h (2 Bft)
11.02.2015 21:04 1,9 C 0,0 C 91 % 1022,4 hPa 0,0 l/m 0 min 0 min 0 W/m 16,7 km/h (3 Bft)
11.02.2015 21:06 1,9 C 0,0 C 91 % 1022,4 hPa 0,0 l/m 0 min 0 min 0 W/m 12,6 km/h (3 Bft)
11.02.2015 21:08 1,8 C 0,0 C 91 % 1022,4 hPa 0,0 l/m 0 min 0 min 0 W/m 12,6 km/h (3 Bft)
11.02.2015 21:10 1,8 C 0,0 C 91 % 1022,4 hPa 0,0 l/m 0 min 0 min 0 W/m 10,5 km/h (2 Bft)
11.02.2015 21:12 1,8 C 0,0 C 91 % 1022,4 hPa 0,0 l/m 0 min 0 min 0 W/m 14,6 km/h (3 Bft)
11.02.2015 21:14 1,8 C 0,0 C 91 % 1022,4 hPa 0,0 l/m 0 min 0 min 0 W/m 16,7 km/h (3 Bft)
11.02.2015 21:16 1,8 C 0,0 C 91 % 1022,4 hPa 0,0 l/m 0 min 0 min 0 W/m 16,7 km/h (3 Bft)
11.02.2015 21:18 1,8 C 0,0 C 91 % 1022,4 hPa 0,0 l/m 0 min 0 min 0 W/m 10,5 km/h (2 Bft)
11.02.2015 21:20 1,7 C 0,0 C 91 % 1022,4 hPa 0,0 l/m 0 min 0 min 0 W/m 12,6 km/h (3 Bft)
11.02.2015 21:22 1,7 C 0,0 C 91 % 1022,4 hPa 0,0 l/m 0 min 0 min 0 W/m 18,8 km/h (3 Bft)
11.02.2015 21:24 1,7 C 0,0 C 91 % 1022,4 hPa 0,0 l/m 0 min 0 min 0 W/m 14,6 km/h (3 Bft)
11.02.2015 21:26 1,7 C 0,0 C 91 % 1022,5 hPa 0,0 l/m 0 min 0 min 0 W/m 10,5 km/h (2 Bft)
11.02.2015 21:28 1,7 C 0,0 C 91 % 1022,5 hPa 0,0 l/m 0 min 0 min 0 W/m 12,6 km/h (3 Bft)
11.02.2015 21:30 1,7 C 0,0 C 91 % 1022,5 hPa 0,0 l/m 0 min 0 min 0 W/m 10,5 km/h (2 Bft)
11.02.2015 21:32 1,7 C 0,0 C 91 % 1022,5 hPa 0,0 l/m 0 min 0 min 0 W/m 14,6 km/h (3 Bft)
11.02.2015 21:34 1,7 C 0,0 C 91 % 1022,5 hPa 0,0 l/m 0 min 0 min 0 W/m 10,5 km/h (2 Bft)
11.02.2015 21:36 1,6 C 0,0 C 91 % 1022,6 hPa 0,0 l/m 0 min 0 min 0 W/m 10,5 km/h (2 Bft)
11.02.2015 21:38 1,6 C 0,0 C 91 % 1022,6 hPa 0,0 l/m 0 min 0 min 0 W/m 12,6 km/h (3 Bft)
11.02.2015 21:40 1,6 C 0,0 C 91 % 1022,6 hPa 0,0 l/m 0 min 0 min 0 W/m 6,3 km/h (2 Bft)
11.02.2015 21:42 1,6 C -0,6 C 91 % 1022,6 hPa 0,0 l/m 0 min 0 min 0 W/m 10,5 km/h (2 Bft)
11.02.2015 21:44 1,6 C -0,6 C 91 % 1022,6 hPa 0,0 l/m 0 min 0 min 0 W/m 6,3 km/h (2 Bft)
11.02.2015 21:46 1,5 C -0,6 C 91 % 1022,6 hPa 0,0 l/m 0 min 0 min 0 W/m 10,5 km/h (2 Bft)
11.02.2015 21:48 1,5 C -0,6 C 91 % 1022,5 hPa 0,0 l/m 0 min 0 min 0 W/m 6,3 km/h (2 Bft)
11.02.2015 21:50 1,5 C -0,6 C 91 % 1022,5 hPa 0,0 l/m 0 min 0 min 0 W/m 12,6 km/h (3 Bft)
11.02.2015 21:52 1,4 C -0,6 C 91 % 1022,6 hPa 0,0 l/m 0 min 0 min 0 W/m 8,4 km/h (2 Bft)
11.02.2015 21:54 1,4 C -0,6 C 91 % 1022,6 hPa 0,0 l/m 0 min 0 min 0 W/m 10,5 km/h (2 Bft)
11.02.2015 21:56 1,4 C -0,6 C 91 % 1022,6 hPa 0,0 l/m 0 min 0 min 0 W/m 12,6 km/h (3 Bft)
11.02.2015 21:58 1,4 C -0,6 C 91 % 1022,5 hPa 0,0 l/m 0 min 0 min 0 W/m 10,5 km/h (2 Bft)
11.02.2015 22:00 1,4 C -0,6 C 91 % 1022,6 hPa 0,0 l/m 0 min 0 min 0 W/m 10,5 km/h (2 Bft)
11.02.2015 22:02 1,4 C -0,6 C 91 % 1022,5 hPa 0,0 l/m 0 min 0 min 0 W/m 10,5 km/h (2 Bft)
11.02.2015 22:04 1,3 C -0,6 C 91 % 1022,5 hPa 0,0 l/m 0 min 0 min 0 W/m 6,3 km/h (2 Bft)
11.02.2015 22:06 1,3 C -0,6 C 91 % 1022,5 hPa 0,0 l/m 0 min 0 min 0 W/m 10,5 km/h (2 Bft)
11.02.2015 22:08 1,3 C -0,6 C 91 % 1022,6 hPa 0,0 l/m 0 min 0 min 0 W/m 8,4 km/h (2 Bft)
11.02.2015 22:10 1,3 C -0,6 C 91 % 1022,6 hPa 0,0 l/m 0 min 0 min 0 W/m 8,4 km/h (2 Bft)
11.02.2015 22:12 1,3 C -0,6 C 91 % 1022,6 hPa 0,0 l/m 0 min 0 min 0 W/m 6,3 km/h (2 Bft)
11.02.2015 22:14 1,2 C -0,6 C 91 % 1022,5 hPa 0,0 l/m 0 min 0 min 0 W/m 8,4 km/h (2 Bft)
11.02.2015 22:16 1,2 C -0,6 C 91 % 1022,5 hPa 0,0 l/m 0 min 0 min 0 W/m 10,5 km/h (2 Bft)
11.02.2015 22:18 1,2 C -0,6 C 91 % 1022,5 hPa 0,0 l/m 0 min 0 min 0 W/m 8,4 km/h (2 Bft)
11.02.2015 22:20 1,2 C -0,6 C 91 % 1022,4 hPa 0,0 l/m 0 min 0 min 0 W/m 10,5 km/h (2 Bft)
11.02.2015 22:22 1,1 C -0,6 C 91 % 1022,5 hPa 0,0 l/m 0 min 0 min 0 W/m 12,6 km/h (3 Bft)
11.02.2015 22:24 1,1 C -0,6 C 91 % 1022,5 hPa 0,0 l/m 0 min 0 min 0 W/m 8,4 km/h (2 Bft)
11.02.2015 22:26 1,1 C -0,6 C 91 % 1022,5 hPa 0,0 l/m 0 min 0 min 0 W/m 12,6 km/h (3 Bft)
11.02.2015 22:28 1,1 C -0,6 C 91 % 1022,5 hPa 0,0 l/m 0 min 0 min 0 W/m 12,6 km/h (3 Bft)
11.02.2015 22:30 1,1 C -0,6 C 92 % 1022,5 hPa 0,0 l/m 0 min 0 min 0 W/m 16,7 km/h (3 Bft)
11.02.2015 22:32 1,1 C -0,6 C 92 % 1022,5 hPa 0,0 l/m 0 min 0 min 0 W/m 12,6 km/h (3 Bft)
11.02.2015 22:34 1,0 C -0,6 C 92 % 1022,4 hPa 0,0 l/m 0 min 0 min 0 W/m 10,5 km/h (2 Bft)
11.02.2015 22:36 1,0 C -0,6 C 92 % 1022,5 hPa 0,0 l/m 0 min 0 min 0 W/m 8,4 km/h (2 Bft)
11.02.2015 22:38 1,0 C -0,6 C 92 % 1022,4 hPa 0,0 l/m 0 min 0 min 0 W/m 8,4 km/h (2 Bft)
11.02.2015 22:40 0,9 C -0,6 C 92 % 1022,5 hPa 0,0 l/m 0 min 0 min 0 W/m 14,6 km/h (3 Bft)
11.02.2015 22:42 0,9 C -0,6 C 92 % 1022,3 hPa 0,0 l/m 0 min 0 min 0 W/m 14,6 km/h (3 Bft)
11.02.2015 22:44 0,9 C -0,6 C 92 % 1022,4 hPa 0,0 l/m 0 min 0 min 0 W/m 10,5 km/h (2 Bft)
11.02.2015 22:46 0,9 C -0,6 C 92 % 1022,4 hPa 0,0 l/m 0 min 0 min 0 W/m 10,5 km/h (2 Bft)
11.02.2015 22:48 0,9 C -0,6 C 92 % 1022,3 hPa 0,0 l/m 0 min 0 min 0 W/m 14,6 km/h (3 Bft)
11.02.2015 22:50 0,9 C -0,6 C 92 % 1022,3 hPa 0,0 l/m 0 min 0 min 0 W/m 12,6 km/h (3 Bft)
11.02.2015 22:52 0,9 C -0,6 C 92 % 1022,3 hPa 0,0 l/m 0 min 0 min 0 W/m 12,6 km/h (3 Bft)
11.02.2015 22:54 0,9 C -0,6 C 92 % 1022,5 hPa 0,0 l/m 0 min 0 min 0 W/m 10,5 km/h (2 Bft)
11.02.2015 22:56 0,9 C -0,6 C 92 % 1022,4 hPa 0,0 l/m 0 min 0 min 0 W/m 12,6 km/h (3 Bft)
11.02.2015 22:58 0,9 C -0,6 C 92 % 1022,4 hPa 0,0 l/m 0 min 0 min 0 W/m 14,6 km/h (3 Bft)
11.02.2015 23:00 0,9 C -0,6 C 92 % 1022,3 hPa 0,0 l/m 0 min 0 min 0 W/m 16,7 km/h (3 Bft)
11.02.2015 23:02 0,9 C -0,6 C 92 % 1022,3 hPa 0,0 l/m 0 min 0 min 0 W/m 14,6 km/h (3 Bft)
11.02.2015 23:04 0,9 C -0,6 C 92 % 1022,2 hPa 0,0 l/m 0 min 0 min 0 W/m 12,6 km/h (3 Bft)
11.02.2015 23:06 0,9 C -0,6 C 92 % 1022,3 hPa 0,0 l/m 0 min 0 min 0 W/m 18,8 km/h (3 Bft)
11.02.2015 23:08 0,8 C -0,6 C 93 % 1022,2 hPa 0,0 l/m 0 min 0 min 0 W/m 14,6 km/h (3 Bft)
11.02.2015 23:10 0,8 C -0,6 C 93 % 1022,4 hPa 0,0 l/m 0 min 0 min 0 W/m 20,9 km/h (4 Bft)
11.02.2015 23:12 0,8 C -0,6 C 93 % 1022,4 hPa 0,0 l/m 0 min 0 min 0 W/m 16,7 km/h (3 Bft)
11.02.2015 23:14 0,8 C -0,6 C 93 % 1022,4 hPa 0,0 l/m 0 min 0 min 0 W/m 16,7 km/h (3 Bft)
11.02.2015 23:16 0,8 C -0,6 C 93 % 1022,2 hPa 0,0 l/m 0 min 0 min 0 W/m 16,7 km/h (3 Bft)
11.02.2015 23:18 0,8 C -0,6 C 93 % 1022,2 hPa 0,0 l/m 0 min 0 min 0 W/m 14,6 km/h (3 Bft)
11.02.2015 23:20 0,8 C -0,6 C 93 % 1022,3 hPa 0,0 l/m 0 min 0 min 0 W/m 14,6 km/h (3 Bft)
11.02.2015 23:22 0,8 C -0,6 C 93 % 1022,3 hPa 0,0 l/m 0 min 0 min 0 W/m 16,7 km/h (3 Bft)
11.02.2015 23:24 0,8 C -0,6 C 93 % 1022,2 hPa 0,0 l/m 0 min 0 min 0 W/m 16,7 km/h (3 Bft)
11.02.2015 23:26 0,8 C -0,6 C 93 % 1022,2 hPa 0,0 l/m 0 min 0 min 0 W/m 12,6 km/h (3 Bft)
11.02.2015 23:28 0,8 C -0,6 C 93 % 1022,2 hPa 0,0 l/m 0 min 0 min 0 W/m 20,9 km/h (4 Bft)
11.02.2015 23:30 0,8 C -0,6 C 93 % 1022,2 hPa 0,0 l/m 0 min 0 min 0 W/m 16,7 km/h (3 Bft)
11.02.2015 23:32 0,8 C -0,6 C 93 % 1022,2 hPa 0,0 l/m 0 min 0 min 0 W/m 16,7 km/h (3 Bft)
11.02.2015 23:34 0,8 C -0,6 C 93 % 1022,2 hPa 0,0 l/m 0 min 0 min 0 W/m 14,6 km/h (3 Bft)
11.02.2015 23:36 0,8 C -0,6 C 93 % 1022,2 hPa 0,0 l/m 0 min 0 min 0 W/m 14,6 km/h (3 Bft)
11.02.2015 23:38 0,9 C -0,6 C 93 % 1022,2 hPa 0,0 l/m 0 min 0 min 0 W/m 16,7 km/h (3 Bft)
11.02.2015 23:40 0,9 C -0,6 C 93 % 1022,1 hPa 0,0 l/m 0 min 0 min 0 W/m 16,7 km/h (3 Bft)
11.02.2015 23:42 0,9 C -0,6 C 93 % 1022,1 hPa 0,0 l/m 0 min 0 min 0 W/m 20,9 km/h (4 Bft)
11.02.2015 23:44 0,9 C -0,6 C 93 % 1022,2 hPa 0,0 l/m 0 min 0 min 0 W/m 18,8 km/h (3 Bft)
11.02.2015 23:46 0,9 C -0,6 C 93 % 1022,2 hPa 0,0 l/m 0 min 0 min 0 W/m 20,9 km/h (4 Bft)
11.02.2015 23:48 0,9 C -0,6 C 93 % 1022,2 hPa 0,0 l/m 0 min 0 min 0 W/m 23,0 km/h (4 Bft)
11.02.2015 23:50 0,9 C -0,6 C 93 % 1022,1 hPa 0,0 l/m 0 min 0 min 0 W/m 18,8 km/h (3 Bft)
11.02.2015 23:52 0,9 C -0,6 C 93 % 1022,1 hPa 0,0 l/m 0 min 0 min 0 W/m 14,6 km/h (3 Bft)
11.02.2015 23:54 0,8 C -0,6 C 93 % 1022,1 hPa 0,0 l/m 0 min 0 min 0 W/m 23,0 km/h (4 Bft)
11.02.2015 23:56 0,9 C -0,6 C 94 % 1022,2 hPa 0,0 l/m 0 min 0 min 0 W/m 14,6 km/h (3 Bft)
11.02.2015 23:58 0,9 C -0,6 C 94 % 1022,1 hPa 0,0 l/m 0 min 0 min 0 W/m 25,1 km/h (4 Bft)
_ Min-Zeit 23:04 19:12 15:46 23:40 - - - - 00:58
Minimum _ 0,8 C -0,6 C 78 % 1022,1 hPa - - - - 2,1 km/h (1 Bft)
_ Max-Zeit 15:40 13:40 00:00 00:00 00:00 14:02 00:00 14:42 10:20
Maximum _ 6,9 C 5,6 C 96 % 1029,3 hPa 0,0 l/m 2 min 0 min 281 W/m 29,3 km/h
O (5 Bft)
Durchschnitt _ 3,9 C 2,5 C 88 % 1025,3 hPa #0,0 l/m #2:10 h #0 min. 104 W/m 13,4 km/h (3 Bft)
© 2015 W. Hausmann